<?xml version="1.0" encoding="UTF-8" standalone="no" ?>
<gpx xmlns="http://www.topografix.com/GPX/1/1" xmlns:xsi="http://www.w3.org/2001/XMLSchema-instance" xsi:schemaLocation="http://www.topografix.com/GPX/1/1 http://www.topografix.com/GPX/1/1/gpx.xsd" version="1.1" creator="VisuGPX - https://www.visugpx.com">
  <metadata>
    <name>Pernes-les-Fontaines 11K</name>
  </metadata>
  <trk>
    <name><![CDATA[Pernes-les-Fontaines Cyclisme]]></name>
    <trkseg>
      <trkpt lat="43.99883" lon="5.06761">
        <ele>93</ele>
        <time>2018-03-13T16:37:30.000Z</time>
      </trkpt>
      <trkpt lat="43.99881" lon="5.06758">
        <ele>92.800003051758</ele>
        <time>2018-03-13T16:37:35.000Z</time>
      </trkpt>
      <trkpt lat="43.99885" lon="5.06746">
        <ele>92.599998474121</ele>
        <time>2018-03-13T16:37:38.000Z</time>
      </trkpt>
      <trkpt lat="43.99901" lon="5.06741">
        <ele>92.400001525879</ele>
        <time>2018-03-13T16:37:41.000Z</time>
      </trkpt>
      <trkpt lat="43.99907" lon="5.0674">
        <ele>92.400001525879</ele>
        <time>2018-03-13T16:37:42.000Z</time>
      </trkpt>
      <trkpt lat="43.99934" lon="5.06731">
        <ele>92.199996948242</ele>
        <time>2018-03-13T16:37:47.000Z</time>
      </trkpt>
      <trkpt lat="43.99936" lon="5.06727">
        <ele>92.199996948242</ele>
        <time>2018-03-13T16:37:48.000Z</time>
      </trkpt>
      <trkpt lat="43.99936" lon="5.06709">
        <ele>92</ele>
        <time>2018-03-13T16:37:51.000Z</time>
      </trkpt>
      <trkpt lat="43.99935" lon="5.067">
        <ele>92</ele>
        <time>2018-03-13T16:37:52.000Z</time>
      </trkpt>
      <trkpt lat="43.99934" lon="5.0668">
        <ele>92</ele>
        <time>2018-03-13T16:37:54.000Z</time>
      </trkpt>
      <trkpt lat="43.99931" lon="5.06604">
        <ele>91.599998474121</ele>
        <time>2018-03-13T16:38:02.000Z</time>
      </trkpt>
      <trkpt lat="43.99931" lon="5.06596">
        <ele>91.599998474121</ele>
        <time>2018-03-13T16:38:03.000Z</time>
      </trkpt>
      <trkpt lat="43.99928" lon="5.06584">
        <ele>91.400001525879</ele>
        <time>2018-03-13T16:38:06.000Z</time>
      </trkpt>
      <trkpt lat="43.99914" lon="5.06569">
        <ele>91</ele>
        <time>2018-03-13T16:38:10.000Z</time>
      </trkpt>
      <trkpt lat="43.99913" lon="5.06547">
        <ele>90.800003051758</ele>
        <time>2018-03-13T16:38:13.000Z</time>
      </trkpt>
      <trkpt lat="43.99914" lon="5.06539">
        <ele>90.599998474121</ele>
        <time>2018-03-13T16:38:14.000Z</time>
      </trkpt>
      <trkpt lat="43.99917" lon="5.06495">
        <ele>90.199996948242</ele>
        <time>2018-03-13T16:38:19.000Z</time>
      </trkpt>
      <trkpt lat="43.99921" lon="5.06414">
        <ele>90.199996948242</ele>
        <time>2018-03-13T16:38:28.000Z</time>
      </trkpt>
      <trkpt lat="43.99922" lon="5.06396">
        <ele>90.599998474121</ele>
        <time>2018-03-13T16:38:30.000Z</time>
      </trkpt>
      <trkpt lat="43.99921" lon="5.06368">
        <ele>90.800003051758</ele>
        <time>2018-03-13T16:38:33.000Z</time>
      </trkpt>
      <trkpt lat="43.99918" lon="5.0636">
        <ele>90.800003051758</ele>
        <time>2018-03-13T16:38:34.000Z</time>
      </trkpt>
      <trkpt lat="43.999" lon="5.06305">
        <ele>90.199996948242</ele>
        <time>2018-03-13T16:38:40.000Z</time>
      </trkpt>
      <trkpt lat="43.99896" lon="5.06296">
        <ele>90</ele>
        <time>2018-03-13T16:38:41.000Z</time>
      </trkpt>
      <trkpt lat="43.99878" lon="5.06241">
        <ele>88.800003051758</ele>
        <time>2018-03-13T16:38:47.000Z</time>
      </trkpt>
      <trkpt lat="43.99869" lon="5.06217">
        <ele>88.199996948242</ele>
        <time>2018-03-13T16:38:51.000Z</time>
      </trkpt>
      <trkpt lat="43.99866" lon="5.06211">
        <ele>88</ele>
        <time>2018-03-13T16:38:54.000Z</time>
      </trkpt>
      <trkpt lat="43.99851" lon="5.06211">
        <ele>88.199996948242</ele>
        <time>2018-03-13T16:38:57.000Z</time>
      </trkpt>
      <trkpt lat="43.9984" lon="5.06213">
        <ele>88.599998474121</ele>
        <time>2018-03-13T16:38:59.000Z</time>
      </trkpt>
      <trkpt lat="43.99819" lon="5.06219">
        <ele>89.199996948242</ele>
        <time>2018-03-13T16:39:02.000Z</time>
      </trkpt>
      <trkpt lat="43.99793" lon="5.06224">
        <ele>90</ele>
        <time>2018-03-13T16:39:06.000Z</time>
      </trkpt>
      <trkpt lat="43.9978" lon="5.06222">
        <ele>89.800003051758</ele>
        <time>2018-03-13T16:39:08.000Z</time>
      </trkpt>
      <trkpt lat="43.99773" lon="5.06221">
        <ele>90</ele>
        <time>2018-03-13T16:39:09.000Z</time>
      </trkpt>
      <trkpt lat="43.9975" lon="5.06211">
        <ele>91.199996948242</ele>
        <time>2018-03-13T16:39:13.000Z</time>
      </trkpt>
      <trkpt lat="43.99745" lon="5.06208">
        <ele>91.400001525879</ele>
        <time>2018-03-13T16:39:14.000Z</time>
      </trkpt>
      <trkpt lat="43.99741" lon="5.06203">
        <ele>91.800003051758</ele>
        <time>2018-03-13T16:39:15.000Z</time>
      </trkpt>
      <trkpt lat="43.99729" lon="5.06186">
        <ele>93</ele>
        <time>2018-03-13T16:39:18.000Z</time>
      </trkpt>
      <trkpt lat="43.99725" lon="5.0618">
        <ele>93.400001525879</ele>
        <time>2018-03-13T16:39:19.000Z</time>
      </trkpt>
      <trkpt lat="43.99719" lon="5.06167">
        <ele>94.199996948242</ele>
        <time>2018-03-13T16:39:21.000Z</time>
      </trkpt>
      <trkpt lat="43.99711" lon="5.06147">
        <ele>95.400001525879</ele>
        <time>2018-03-13T16:39:24.000Z</time>
      </trkpt>
      <trkpt lat="43.99703" lon="5.06121">
        <ele>96.400001525879</ele>
        <time>2018-03-13T16:39:28.000Z</time>
      </trkpt>
      <trkpt lat="43.99701" lon="5.06113">
        <ele>96.800003051758</ele>
        <time>2018-03-13T16:39:29.000Z</time>
      </trkpt>
      <trkpt lat="43.99695" lon="5.06073">
        <ele>98</ele>
        <time>2018-03-13T16:39:34.000Z</time>
      </trkpt>
      <trkpt lat="43.99692" lon="5.06049">
        <ele>98.800003051758</ele>
        <time>2018-03-13T16:39:37.000Z</time>
      </trkpt>
      <trkpt lat="43.99689" lon="5.06018">
        <ele>98.800003051758</ele>
        <time>2018-03-13T16:39:41.000Z</time>
      </trkpt>
      <trkpt lat="43.99687" lon="5.06001">
        <ele>98.800003051758</ele>
        <time>2018-03-13T16:39:43.000Z</time>
      </trkpt>
      <trkpt lat="43.99681" lon="5.05951">
        <ele>98</ele>
        <time>2018-03-13T16:39:49.000Z</time>
      </trkpt>
      <trkpt lat="43.99677" lon="5.05935">
        <ele>97.800003051758</ele>
        <time>2018-03-13T16:39:51.000Z</time>
      </trkpt>
      <trkpt lat="43.99669" lon="5.0592">
        <ele>98.199996948242</ele>
        <time>2018-03-13T16:39:53.000Z</time>
      </trkpt>
      <trkpt lat="43.99661" lon="5.05907">
        <ele>98.599998474121</ele>
        <time>2018-03-13T16:39:55.000Z</time>
      </trkpt>
      <trkpt lat="43.99645" lon="5.05878">
        <ele>99.400001525879</ele>
        <time>2018-03-13T16:39:59.000Z</time>
      </trkpt>
      <trkpt lat="43.99643" lon="5.0587">
        <ele>99.400001525879</ele>
        <time>2018-03-13T16:40:00.000Z</time>
      </trkpt>
      <trkpt lat="43.99634" lon="5.05847">
        <ele>99.400001525879</ele>
        <time>2018-03-13T16:40:03.000Z</time>
      </trkpt>
      <trkpt lat="43.99608" lon="5.05775">
        <ele>99</ele>
        <time>2018-03-13T16:40:12.000Z</time>
      </trkpt>
      <trkpt lat="43.99597" lon="5.05738">
        <ele>98.199996948242</ele>
        <time>2018-03-13T16:40:16.000Z</time>
      </trkpt>
      <trkpt lat="43.99593" lon="5.05731">
        <ele>98.199996948242</ele>
        <time>2018-03-13T16:40:17.000Z</time>
      </trkpt>
      <trkpt lat="43.99574" lon="5.05707">
        <ele>98.800003051758</ele>
        <time>2018-03-13T16:40:21.000Z</time>
      </trkpt>
      <trkpt lat="43.99556" lon="5.05693">
        <ele>99.199996948242</ele>
        <time>2018-03-13T16:40:24.000Z</time>
      </trkpt>
      <trkpt lat="43.99554" lon="5.05684">
        <ele>98.400001525879</ele>
        <time>2018-03-13T16:40:25.000Z</time>
      </trkpt>
      <trkpt lat="43.9954" lon="5.05663">
        <ele>97.599998474121</ele>
        <time>2018-03-13T16:40:28.000Z</time>
      </trkpt>
      <trkpt lat="43.99532" lon="5.0565">
        <ele>97</ele>
        <time>2018-03-13T16:40:30.000Z</time>
      </trkpt>
      <trkpt lat="43.99528" lon="5.05646">
        <ele>97.199996948242</ele>
        <time>2018-03-13T16:40:32.000Z</time>
      </trkpt>
      <trkpt lat="43.99527" lon="5.0565">
        <ele>97.599998474121</ele>
        <time>2018-03-13T16:40:33.000Z</time>
      </trkpt>
      <trkpt lat="43.99519" lon="5.05654">
        <ele>99.199996948242</ele>
        <time>2018-03-13T16:40:35.000Z</time>
      </trkpt>
      <trkpt lat="43.99512" lon="5.05644">
        <ele>99</ele>
        <time>2018-03-13T16:40:37.000Z</time>
      </trkpt>
      <trkpt lat="43.99503" lon="5.05629">
        <ele>98.199996948242</ele>
        <time>2018-03-13T16:40:39.000Z</time>
      </trkpt>
      <trkpt lat="43.99499" lon="5.05621">
        <ele>98</ele>
        <time>2018-03-13T16:40:40.000Z</time>
      </trkpt>
      <trkpt lat="43.9948" lon="5.05581">
        <ele>97.199996948242</ele>
        <time>2018-03-13T16:40:45.000Z</time>
      </trkpt>
      <trkpt lat="43.99466" lon="5.05559">
        <ele>97.199996948242</ele>
        <time>2018-03-13T16:40:48.000Z</time>
      </trkpt>
      <trkpt lat="43.99456" lon="5.05548">
        <ele>97.800003051758</ele>
        <time>2018-03-13T16:40:50.000Z</time>
      </trkpt>
      <trkpt lat="43.99444" lon="5.05538">
        <ele>98.199996948242</ele>
        <time>2018-03-13T16:40:52.000Z</time>
      </trkpt>
      <trkpt lat="43.99428" lon="5.05524">
        <ele>98.400001525879</ele>
        <time>2018-03-13T16:40:55.000Z</time>
      </trkpt>
      <trkpt lat="43.99419" lon="5.05515">
        <ele>98.400001525879</ele>
        <time>2018-03-13T16:40:57.000Z</time>
      </trkpt>
      <trkpt lat="43.99404" lon="5.05499">
        <ele>98.199996948242</ele>
        <time>2018-03-13T16:41:01.000Z</time>
      </trkpt>
      <trkpt lat="43.99394" lon="5.05488">
        <ele>98.199996948242</ele>
        <time>2018-03-13T16:41:03.000Z</time>
      </trkpt>
      <trkpt lat="43.99384" lon="5.05474">
        <ele>97.599998474121</ele>
        <time>2018-03-13T16:41:05.000Z</time>
      </trkpt>
      <trkpt lat="43.99352" lon="5.05425">
        <ele>96.400001525879</ele>
        <time>2018-03-13T16:41:12.000Z</time>
      </trkpt>
      <trkpt lat="43.99325" lon="5.05383">
        <ele>95.199996948242</ele>
        <time>2018-03-13T16:41:18.000Z</time>
      </trkpt>
      <trkpt lat="43.99313" lon="5.0536">
        <ele>94.599998474121</ele>
        <time>2018-03-13T16:41:21.000Z</time>
      </trkpt>
      <trkpt lat="43.99301" lon="5.05337">
        <ele>94</ele>
        <time>2018-03-13T16:41:24.000Z</time>
      </trkpt>
      <trkpt lat="43.99286" lon="5.05318">
        <ele>94</ele>
        <time>2018-03-13T16:41:27.000Z</time>
      </trkpt>
      <trkpt lat="43.9928" lon="5.05314">
        <ele>94.199996948242</ele>
        <time>2018-03-13T16:41:28.000Z</time>
      </trkpt>
      <trkpt lat="43.99257" lon="5.05305">
        <ele>94.800003051758</ele>
        <time>2018-03-13T16:41:32.000Z</time>
      </trkpt>
      <trkpt lat="43.99251" lon="5.05303">
        <ele>95</ele>
        <time>2018-03-13T16:41:33.000Z</time>
      </trkpt>
      <trkpt lat="43.99206" lon="5.05288">
        <ele>95.800003051758</ele>
        <time>2018-03-13T16:41:40.000Z</time>
      </trkpt>
      <trkpt lat="43.992" lon="5.05283">
        <ele>95.800003051758</ele>
        <time>2018-03-13T16:41:41.000Z</time>
      </trkpt>
      <trkpt lat="43.99184" lon="5.05266">
        <ele>95.800003051758</ele>
        <time>2018-03-13T16:41:44.000Z</time>
      </trkpt>
      <trkpt lat="43.99148" lon="5.05226">
        <ele>96.800003051758</ele>
        <time>2018-03-13T16:41:51.000Z</time>
      </trkpt>
      <trkpt lat="43.99142" lon="5.05222">
        <ele>97</ele>
        <time>2018-03-13T16:41:52.000Z</time>
      </trkpt>
      <trkpt lat="43.99099" lon="5.05196">
        <ele>100</ele>
        <time>2018-03-13T16:41:59.000Z</time>
      </trkpt>
      <trkpt lat="43.99075" lon="5.05176">
        <ele>101.59999847412</ele>
        <time>2018-03-13T16:42:03.000Z</time>
      </trkpt>
      <trkpt lat="43.9907" lon="5.0517">
        <ele>101.80000305176</ele>
        <time>2018-03-13T16:42:04.000Z</time>
      </trkpt>
      <trkpt lat="43.9904" lon="5.05135">
        <ele>102.59999847412</ele>
        <time>2018-03-13T16:42:10.000Z</time>
      </trkpt>
      <trkpt lat="43.99012" lon="5.051">
        <ele>101.59999847412</ele>
        <time>2018-03-13T16:42:16.000Z</time>
      </trkpt>
      <trkpt lat="43.99006" lon="5.05096">
        <ele>101.40000152588</ele>
        <time>2018-03-13T16:42:17.000Z</time>
      </trkpt>
      <trkpt lat="43.98972" lon="5.0507">
        <ele>101</ele>
        <time>2018-03-13T16:42:23.000Z</time>
      </trkpt>
      <trkpt lat="43.98966" lon="5.05067">
        <ele>101</ele>
        <time>2018-03-13T16:42:24.000Z</time>
      </trkpt>
      <trkpt lat="43.9896" lon="5.05064">
        <ele>101.19999694824</ele>
        <time>2018-03-13T16:42:25.000Z</time>
      </trkpt>
      <trkpt lat="43.98942" lon="5.05055">
        <ele>101.40000152588</ele>
        <time>2018-03-13T16:42:28.000Z</time>
      </trkpt>
      <trkpt lat="43.98936" lon="5.05053">
        <ele>101.19999694824</ele>
        <time>2018-03-13T16:42:29.000Z</time>
      </trkpt>
      <trkpt lat="43.98925" lon="5.05048">
        <ele>100.59999847412</ele>
        <time>2018-03-13T16:42:31.000Z</time>
      </trkpt>
      <trkpt lat="43.98918" lon="5.05046">
        <ele>100.40000152588</ele>
        <time>2018-03-13T16:42:32.000Z</time>
      </trkpt>
      <trkpt lat="43.98886" lon="5.05026">
        <ele>98.400001525879</ele>
        <time>2018-03-13T16:42:37.000Z</time>
      </trkpt>
      <trkpt lat="43.98842" lon="5.04996">
        <ele>96</ele>
        <time>2018-03-13T16:42:44.000Z</time>
      </trkpt>
      <trkpt lat="43.98797" lon="5.04975">
        <ele>95</ele>
        <time>2018-03-13T16:42:51.000Z</time>
      </trkpt>
      <trkpt lat="43.98753" lon="5.04953">
        <ele>92.199996948242</ele>
        <time>2018-03-13T16:42:58.000Z</time>
      </trkpt>
      <trkpt lat="43.98727" lon="5.04948">
        <ele>90.199996948242</ele>
        <time>2018-03-13T16:43:02.000Z</time>
      </trkpt>
      <trkpt lat="43.9872" lon="5.04949">
        <ele>89.800003051758</ele>
        <time>2018-03-13T16:43:03.000Z</time>
      </trkpt>
      <trkpt lat="43.98714" lon="5.04952">
        <ele>89.400001525879</ele>
        <time>2018-03-13T16:43:04.000Z</time>
      </trkpt>
      <trkpt lat="43.98697" lon="5.04967">
        <ele>88.599998474121</ele>
        <time>2018-03-13T16:43:07.000Z</time>
      </trkpt>
      <trkpt lat="43.98686" lon="5.04993">
        <ele>87.599998474121</ele>
        <time>2018-03-13T16:43:10.000Z</time>
      </trkpt>
      <trkpt lat="43.98682" lon="5.05032">
        <ele>87.199996948242</ele>
        <time>2018-03-13T16:43:14.000Z</time>
      </trkpt>
      <trkpt lat="43.98689" lon="5.05069">
        <ele>87.800003051758</ele>
        <time>2018-03-13T16:43:18.000Z</time>
      </trkpt>
      <trkpt lat="43.98701" lon="5.05135">
        <ele>88.400001525879</ele>
        <time>2018-03-13T16:43:25.000Z</time>
      </trkpt>
      <trkpt lat="43.98702" lon="5.05144">
        <ele>88.599998474121</ele>
        <time>2018-03-13T16:43:26.000Z</time>
      </trkpt>
      <trkpt lat="43.98708" lon="5.0519">
        <ele>89.400001525879</ele>
        <time>2018-03-13T16:43:31.000Z</time>
      </trkpt>
      <trkpt lat="43.98706" lon="5.05209">
        <ele>89.599998474121</ele>
        <time>2018-03-13T16:43:33.000Z</time>
      </trkpt>
      <trkpt lat="43.98702" lon="5.05227">
        <ele>90</ele>
        <time>2018-03-13T16:43:35.000Z</time>
      </trkpt>
      <trkpt lat="43.98699" lon="5.05235">
        <ele>90.400001525879</ele>
        <time>2018-03-13T16:43:36.000Z</time>
      </trkpt>
      <trkpt lat="43.98697" lon="5.05244">
        <ele>90.800003051758</ele>
        <time>2018-03-13T16:43:37.000Z</time>
      </trkpt>
      <trkpt lat="43.9868" lon="5.05293">
        <ele>92</ele>
        <time>2018-03-13T16:43:43.000Z</time>
      </trkpt>
      <trkpt lat="43.98672" lon="5.05307">
        <ele>93.199996948242</ele>
        <time>2018-03-13T16:43:45.000Z</time>
      </trkpt>
      <trkpt lat="43.98662" lon="5.05316">
        <ele>93.400001525879</ele>
        <time>2018-03-13T16:43:47.000Z</time>
      </trkpt>
      <trkpt lat="43.98642" lon="5.0532">
        <ele>92.199996948242</ele>
        <time>2018-03-13T16:43:50.000Z</time>
      </trkpt>
      <trkpt lat="43.98628" lon="5.05321">
        <ele>90.400001525879</ele>
        <time>2018-03-13T16:43:52.000Z</time>
      </trkpt>
      <trkpt lat="43.98615" lon="5.05325">
        <ele>88.199996948242</ele>
        <time>2018-03-13T16:43:54.000Z</time>
      </trkpt>
      <trkpt lat="43.98603" lon="5.05328">
        <ele>87.199996948242</ele>
        <time>2018-03-13T16:43:56.000Z</time>
      </trkpt>
      <trkpt lat="43.98601" lon="5.05331">
        <ele>87.199996948242</ele>
        <time>2018-03-13T16:43:57.000Z</time>
      </trkpt>
      <trkpt lat="43.98602" lon="5.05336">
        <ele>87.400001525879</ele>
        <time>2018-03-13T16:43:58.000Z</time>
      </trkpt>
      <trkpt lat="43.98609" lon="5.05349">
        <ele>88.199996948242</ele>
        <time>2018-03-13T16:44:01.000Z</time>
      </trkpt>
      <trkpt lat="43.98616" lon="5.0536">
        <ele>89.800003051758</ele>
        <time>2018-03-13T16:44:03.000Z</time>
      </trkpt>
      <trkpt lat="43.98623" lon="5.0537">
        <ele>91.400001525879</ele>
        <time>2018-03-13T16:44:05.000Z</time>
      </trkpt>
      <trkpt lat="43.98635" lon="5.05384">
        <ele>93.800003051758</ele>
        <time>2018-03-13T16:44:08.000Z</time>
      </trkpt>
      <trkpt lat="43.98643" lon="5.0539">
        <ele>95.199996948242</ele>
        <time>2018-03-13T16:44:10.000Z</time>
      </trkpt>
      <trkpt lat="43.98647" lon="5.05391">
        <ele>96</ele>
        <time>2018-03-13T16:44:11.000Z</time>
      </trkpt>
      <trkpt lat="43.98656" lon="5.05395">
        <ele>97.400001525879</ele>
        <time>2018-03-13T16:44:13.000Z</time>
      </trkpt>
      <trkpt lat="43.9866" lon="5.05396">
        <ele>98.199996948242</ele>
        <time>2018-03-13T16:44:14.000Z</time>
      </trkpt>
      <trkpt lat="43.98668" lon="5.05402">
        <ele>99.800003051758</ele>
        <time>2018-03-13T16:44:16.000Z</time>
      </trkpt>
      <trkpt lat="43.98673" lon="5.05404">
        <ele>100.59999847412</ele>
        <time>2018-03-13T16:44:17.000Z</time>
      </trkpt>
      <trkpt lat="43.98676" lon="5.05407">
        <ele>101.19999694824</ele>
        <time>2018-03-13T16:44:18.000Z</time>
      </trkpt>
      <trkpt lat="43.98687" lon="5.05414">
        <ele>103.19999694824</ele>
        <time>2018-03-13T16:44:21.000Z</time>
      </trkpt>
      <trkpt lat="43.98691" lon="5.05416">
        <ele>103.80000305176</ele>
        <time>2018-03-13T16:44:22.000Z</time>
      </trkpt>
      <trkpt lat="43.98699" lon="5.05417">
        <ele>104.40000152588</ele>
        <time>2018-03-13T16:44:24.000Z</time>
      </trkpt>
      <trkpt lat="43.98708" lon="5.05418">
        <ele>104.80000305176</ele>
        <time>2018-03-13T16:44:26.000Z</time>
      </trkpt>
      <trkpt lat="43.98711" lon="5.0542">
        <ele>105</ele>
        <time>2018-03-13T16:44:27.000Z</time>
      </trkpt>
      <trkpt lat="43.98718" lon="5.05424">
        <ele>105.40000152588</ele>
        <time>2018-03-13T16:44:29.000Z</time>
      </trkpt>
      <trkpt lat="43.98726" lon="5.05428">
        <ele>106</ele>
        <time>2018-03-13T16:44:31.000Z</time>
      </trkpt>
      <trkpt lat="43.9873" lon="5.05431">
        <ele>106.19999694824</ele>
        <time>2018-03-13T16:44:32.000Z</time>
      </trkpt>
      <trkpt lat="43.98749" lon="5.05446">
        <ele>107.40000152588</ele>
        <time>2018-03-13T16:44:37.000Z</time>
      </trkpt>
      <trkpt lat="43.98753" lon="5.0545">
        <ele>107.80000305176</ele>
        <time>2018-03-13T16:44:38.000Z</time>
      </trkpt>
      <trkpt lat="43.98758" lon="5.05452">
        <ele>108</ele>
        <time>2018-03-13T16:44:39.000Z</time>
      </trkpt>
      <trkpt lat="43.9877" lon="5.05462">
        <ele>108.59999847412</ele>
        <time>2018-03-13T16:44:42.000Z</time>
      </trkpt>
      <trkpt lat="43.98774" lon="5.05464">
        <ele>108.80000305176</ele>
        <time>2018-03-13T16:44:43.000Z</time>
      </trkpt>
      <trkpt lat="43.98796" lon="5.05474">
        <ele>107.40000152588</ele>
        <time>2018-03-13T16:44:48.000Z</time>
      </trkpt>
      <trkpt lat="43.98805" lon="5.05474">
        <ele>107</ele>
        <time>2018-03-13T16:44:50.000Z</time>
      </trkpt>
      <trkpt lat="43.98815" lon="5.05475">
        <ele>106.80000305176</ele>
        <time>2018-03-13T16:44:52.000Z</time>
      </trkpt>
      <trkpt lat="43.98824" lon="5.05477">
        <ele>106.40000152588</ele>
        <time>2018-03-13T16:44:54.000Z</time>
      </trkpt>
      <trkpt lat="43.98828" lon="5.05479">
        <ele>106</ele>
        <time>2018-03-13T16:44:55.000Z</time>
      </trkpt>
      <trkpt lat="43.98844" lon="5.05491">
        <ele>104.59999847412</ele>
        <time>2018-03-13T16:44:59.000Z</time>
      </trkpt>
      <trkpt lat="43.98848" lon="5.05493">
        <ele>104.40000152588</ele>
        <time>2018-03-13T16:45:00.000Z</time>
      </trkpt>
      <trkpt lat="43.9886" lon="5.05507">
        <ele>103</ele>
        <time>2018-03-13T16:45:03.000Z</time>
      </trkpt>
      <trkpt lat="43.98854" lon="5.05515">
        <ele>102.40000152588</ele>
        <time>2018-03-13T16:45:06.000Z</time>
      </trkpt>
      <trkpt lat="43.9885" lon="5.05517">
        <ele>102.40000152588</ele>
        <time>2018-03-13T16:45:07.000Z</time>
      </trkpt>
      <trkpt lat="43.98838" lon="5.0552">
        <ele>102.40000152588</ele>
        <time>2018-03-13T16:45:09.000Z</time>
      </trkpt>
      <trkpt lat="43.98832" lon="5.05523">
        <ele>102.59999847412</ele>
        <time>2018-03-13T16:45:10.000Z</time>
      </trkpt>
      <trkpt lat="43.98811" lon="5.05545">
        <ele>102.80000305176</ele>
        <time>2018-03-13T16:45:14.000Z</time>
      </trkpt>
      <trkpt lat="43.98807" lon="5.05551">
        <ele>102.80000305176</ele>
        <time>2018-03-13T16:45:15.000Z</time>
      </trkpt>
      <trkpt lat="43.98802" lon="5.05557">
        <ele>102.80000305176</ele>
        <time>2018-03-13T16:45:16.000Z</time>
      </trkpt>
      <trkpt lat="43.98789" lon="5.05579">
        <ele>101.80000305176</ele>
        <time>2018-03-13T16:45:19.000Z</time>
      </trkpt>
      <trkpt lat="43.9878" lon="5.05593">
        <ele>100.80000305176</ele>
        <time>2018-03-13T16:45:21.000Z</time>
      </trkpt>
      <trkpt lat="43.98749" lon="5.05631">
        <ele>98.400001525879</ele>
        <time>2018-03-13T16:45:27.000Z</time>
      </trkpt>
      <trkpt lat="43.98742" lon="5.05636">
        <ele>98.599998474121</ele>
        <time>2018-03-13T16:45:28.000Z</time>
      </trkpt>
      <trkpt lat="43.98728" lon="5.05645">
        <ele>98.800003051758</ele>
        <time>2018-03-13T16:45:30.000Z</time>
      </trkpt>
      <trkpt lat="43.98713" lon="5.05651">
        <ele>99.199996948242</ele>
        <time>2018-03-13T16:45:32.000Z</time>
      </trkpt>
      <trkpt lat="43.98704" lon="5.05652">
        <ele>100</ele>
        <time>2018-03-13T16:45:33.000Z</time>
      </trkpt>
      <trkpt lat="43.98695" lon="5.05652">
        <ele>100.59999847412</ele>
        <time>2018-03-13T16:45:34.000Z</time>
      </trkpt>
      <trkpt lat="43.98677" lon="5.05649">
        <ele>99.800003051758</ele>
        <time>2018-03-13T16:45:36.000Z</time>
      </trkpt>
      <trkpt lat="43.98667" lon="5.05648">
        <ele>99.199996948242</ele>
        <time>2018-03-13T16:45:37.000Z</time>
      </trkpt>
      <trkpt lat="43.98641" lon="5.0565">
        <ele>97.599998474121</ele>
        <time>2018-03-13T16:45:40.000Z</time>
      </trkpt>
      <trkpt lat="43.98623" lon="5.05649">
        <ele>96.800003051758</ele>
        <time>2018-03-13T16:45:42.000Z</time>
      </trkpt>
      <trkpt lat="43.98615" lon="5.05649">
        <ele>96.400001525879</ele>
        <time>2018-03-13T16:45:43.000Z</time>
      </trkpt>
      <trkpt lat="43.98606" lon="5.05652">
        <ele>96.599998474121</ele>
        <time>2018-03-13T16:45:44.000Z</time>
      </trkpt>
      <trkpt lat="43.98594" lon="5.05667">
        <ele>98.800003051758</ele>
        <time>2018-03-13T16:45:46.000Z</time>
      </trkpt>
      <trkpt lat="43.98563" lon="5.05717">
        <ele>99.599998474121</ele>
        <time>2018-03-13T16:45:52.000Z</time>
      </trkpt>
      <trkpt lat="43.98543" lon="5.05747">
        <ele>97.599998474121</ele>
        <time>2018-03-13T16:45:56.000Z</time>
      </trkpt>
      <trkpt lat="43.98535" lon="5.0575">
        <ele>96.199996948242</ele>
        <time>2018-03-13T16:45:57.000Z</time>
      </trkpt>
      <trkpt lat="43.98512" lon="5.05739">
        <ele>98.400001525879</ele>
        <time>2018-03-13T16:46:00.000Z</time>
      </trkpt>
      <trkpt lat="43.985" lon="5.05728">
        <ele>101.80000305176</ele>
        <time>2018-03-13T16:46:02.000Z</time>
      </trkpt>
      <trkpt lat="43.98495" lon="5.05723">
        <ele>103.40000152588</ele>
        <time>2018-03-13T16:46:03.000Z</time>
      </trkpt>
      <trkpt lat="43.98489" lon="5.05717">
        <ele>105.19999694824</ele>
        <time>2018-03-13T16:46:04.000Z</time>
      </trkpt>
      <trkpt lat="43.98483" lon="5.05715">
        <ele>106.80000305176</ele>
        <time>2018-03-13T16:46:05.000Z</time>
      </trkpt>
      <trkpt lat="43.98474" lon="5.05724">
        <ele>108.40000152588</ele>
        <time>2018-03-13T16:46:07.000Z</time>
      </trkpt>
      <trkpt lat="43.98463" lon="5.0574">
        <ele>108.59999847412</ele>
        <time>2018-03-13T16:46:10.000Z</time>
      </trkpt>
      <trkpt lat="43.98459" lon="5.05748">
        <ele>107.40000152588</ele>
        <time>2018-03-13T16:46:11.000Z</time>
      </trkpt>
      <trkpt lat="43.98431" lon="5.05795">
        <ele>101.80000305176</ele>
        <time>2018-03-13T16:46:18.000Z</time>
      </trkpt>
      <trkpt lat="43.98403" lon="5.05827">
        <ele>105</ele>
        <time>2018-03-13T16:46:24.000Z</time>
      </trkpt>
      <trkpt lat="43.98399" lon="5.05831">
        <ele>105.40000152588</ele>
        <time>2018-03-13T16:46:25.000Z</time>
      </trkpt>
      <trkpt lat="43.98375" lon="5.05859">
        <ele>102.59999847412</ele>
        <time>2018-03-13T16:46:31.000Z</time>
      </trkpt>
      <trkpt lat="43.98371" lon="5.05863">
        <ele>102.19999694824</ele>
        <time>2018-03-13T16:46:32.000Z</time>
      </trkpt>
      <trkpt lat="43.98352" lon="5.05878">
        <ele>101.59999847412</ele>
        <time>2018-03-13T16:46:36.000Z</time>
      </trkpt>
      <trkpt lat="43.98333" lon="5.05894">
        <ele>102.59999847412</ele>
        <time>2018-03-13T16:46:40.000Z</time>
      </trkpt>
      <trkpt lat="43.9832" lon="5.05908">
        <ele>103.19999694824</ele>
        <time>2018-03-13T16:46:43.000Z</time>
      </trkpt>
      <trkpt lat="43.983" lon="5.05933">
        <ele>105</ele>
        <time>2018-03-13T16:46:48.000Z</time>
      </trkpt>
      <trkpt lat="43.98296" lon="5.05939">
        <ele>105.40000152588</ele>
        <time>2018-03-13T16:46:49.000Z</time>
      </trkpt>
      <trkpt lat="43.98283" lon="5.0596">
        <ele>106.80000305176</ele>
        <time>2018-03-13T16:46:53.000Z</time>
      </trkpt>
      <trkpt lat="43.98278" lon="5.05974">
        <ele>107</ele>
        <time>2018-03-13T16:46:55.000Z</time>
      </trkpt>
      <trkpt lat="43.98277" lon="5.05989">
        <ele>106.40000152588</ele>
        <time>2018-03-13T16:46:57.000Z</time>
      </trkpt>
      <trkpt lat="43.98283" lon="5.06021">
        <ele>104.40000152588</ele>
        <time>2018-03-13T16:47:01.000Z</time>
      </trkpt>
      <trkpt lat="43.98286" lon="5.06031">
        <ele>103.80000305176</ele>
        <time>2018-03-13T16:47:04.000Z</time>
      </trkpt>
      <trkpt lat="43.9828" lon="5.06045">
        <ele>103.59999847412</ele>
        <time>2018-03-13T16:47:08.000Z</time>
      </trkpt>
      <trkpt lat="43.98275" lon="5.06056">
        <ele>103.59999847412</ele>
        <time>2018-03-13T16:47:10.000Z</time>
      </trkpt>
      <trkpt lat="43.98259" lon="5.06089">
        <ele>105.19999694824</ele>
        <time>2018-03-13T16:47:16.000Z</time>
      </trkpt>
      <trkpt lat="43.98258" lon="5.06096">
        <ele>105.19999694824</ele>
        <time>2018-03-13T16:47:17.000Z</time>
      </trkpt>
      <trkpt lat="43.98252" lon="5.06111">
        <ele>104.80000305176</ele>
        <time>2018-03-13T16:47:20.000Z</time>
      </trkpt>
      <trkpt lat="43.98248" lon="5.06117">
        <ele>104.40000152588</ele>
        <time>2018-03-13T16:47:21.000Z</time>
      </trkpt>
      <trkpt lat="43.98242" lon="5.06127">
        <ele>103.59999847412</ele>
        <time>2018-03-13T16:47:23.000Z</time>
      </trkpt>
      <trkpt lat="43.98238" lon="5.0613">
        <ele>103.59999847412</ele>
        <time>2018-03-13T16:47:24.000Z</time>
      </trkpt>
      <trkpt lat="43.9823" lon="5.06142">
        <ele>104</ele>
        <time>2018-03-13T16:47:27.000Z</time>
      </trkpt>
      <trkpt lat="43.98226" lon="5.06146">
        <ele>104</ele>
        <time>2018-03-13T16:47:28.000Z</time>
      </trkpt>
      <trkpt lat="43.98223" lon="5.06149">
        <ele>104.19999694824</ele>
        <time>2018-03-13T16:47:29.000Z</time>
      </trkpt>
      <trkpt lat="43.98213" lon="5.06162">
        <ele>103.80000305176</ele>
        <time>2018-03-13T16:47:32.000Z</time>
      </trkpt>
      <trkpt lat="43.98208" lon="5.06165">
        <ele>103.59999847412</ele>
        <time>2018-03-13T16:47:33.000Z</time>
      </trkpt>
      <trkpt lat="43.98202" lon="5.06177">
        <ele>103</ele>
        <time>2018-03-13T16:47:35.000Z</time>
      </trkpt>
      <trkpt lat="43.98194" lon="5.06184">
        <ele>102.59999847412</ele>
        <time>2018-03-13T16:47:37.000Z</time>
      </trkpt>
      <trkpt lat="43.98182" lon="5.06192">
        <ele>103.19999694824</ele>
        <time>2018-03-13T16:47:40.000Z</time>
      </trkpt>
      <trkpt lat="43.98178" lon="5.06195">
        <ele>103.59999847412</ele>
        <time>2018-03-13T16:47:41.000Z</time>
      </trkpt>
      <trkpt lat="43.98172" lon="5.06203">
        <ele>103.19999694824</ele>
        <time>2018-03-13T16:47:43.000Z</time>
      </trkpt>
      <trkpt lat="43.98169" lon="5.06207">
        <ele>103</ele>
        <time>2018-03-13T16:47:44.000Z</time>
      </trkpt>
      <trkpt lat="43.98166" lon="5.06209">
        <ele>103</ele>
        <time>2018-03-13T16:47:45.000Z</time>
      </trkpt>
      <trkpt lat="43.98164" lon="5.06213">
        <ele>103</ele>
        <time>2018-03-13T16:47:46.000Z</time>
      </trkpt>
      <trkpt lat="43.98162" lon="5.06218">
        <ele>103.40000152588</ele>
        <time>2018-03-13T16:47:47.000Z</time>
      </trkpt>
      <trkpt lat="43.9816" lon="5.06224">
        <ele>103.59999847412</ele>
        <time>2018-03-13T16:47:48.000Z</time>
      </trkpt>
      <trkpt lat="43.98154" lon="5.06237">
        <ele>104.40000152588</ele>
        <time>2018-03-13T16:47:50.000Z</time>
      </trkpt>
      <trkpt lat="43.9815" lon="5.06242">
        <ele>104.80000305176</ele>
        <time>2018-03-13T16:47:51.000Z</time>
      </trkpt>
      <trkpt lat="43.98142" lon="5.06249">
        <ele>105.19999694824</ele>
        <time>2018-03-13T16:47:53.000Z</time>
      </trkpt>
      <trkpt lat="43.98138" lon="5.06253">
        <ele>105</ele>
        <time>2018-03-13T16:47:54.000Z</time>
      </trkpt>
      <trkpt lat="43.98135" lon="5.06258">
        <ele>104.59999847412</ele>
        <time>2018-03-13T16:47:55.000Z</time>
      </trkpt>
      <trkpt lat="43.98131" lon="5.06263">
        <ele>104.40000152588</ele>
        <time>2018-03-13T16:47:56.000Z</time>
      </trkpt>
      <trkpt lat="43.98121" lon="5.06274">
        <ele>104</ele>
        <time>2018-03-13T16:47:58.000Z</time>
      </trkpt>
      <trkpt lat="43.9811" lon="5.06282">
        <ele>103.59999847412</ele>
        <time>2018-03-13T16:48:00.000Z</time>
      </trkpt>
      <trkpt lat="43.98106" lon="5.06286">
        <ele>103.59999847412</ele>
        <time>2018-03-13T16:48:01.000Z</time>
      </trkpt>
      <trkpt lat="43.981" lon="5.06298">
        <ele>103.40000152588</ele>
        <time>2018-03-13T16:48:03.000Z</time>
      </trkpt>
      <trkpt lat="43.98089" lon="5.0632">
        <ele>103.59999847412</ele>
        <time>2018-03-13T16:48:06.000Z</time>
      </trkpt>
      <trkpt lat="43.98085" lon="5.06327">
        <ele>103.59999847412</ele>
        <time>2018-03-13T16:48:07.000Z</time>
      </trkpt>
      <trkpt lat="43.98058" lon="5.06365">
        <ele>103.19999694824</ele>
        <time>2018-03-13T16:48:13.000Z</time>
      </trkpt>
      <trkpt lat="43.98054" lon="5.06371">
        <ele>103</ele>
        <time>2018-03-13T16:48:14.000Z</time>
      </trkpt>
      <trkpt lat="43.98023" lon="5.06411">
        <ele>103.59999847412</ele>
        <time>2018-03-13T16:48:21.000Z</time>
      </trkpt>
      <trkpt lat="43.98019" lon="5.06417">
        <ele>103.80000305176</ele>
        <time>2018-03-13T16:48:22.000Z</time>
      </trkpt>
      <trkpt lat="43.98014" lon="5.06422">
        <ele>104.19999694824</ele>
        <time>2018-03-13T16:48:23.000Z</time>
      </trkpt>
      <trkpt lat="43.97992" lon="5.06451">
        <ele>104.80000305176</ele>
        <time>2018-03-13T16:48:28.000Z</time>
      </trkpt>
      <trkpt lat="43.97983" lon="5.06462">
        <ele>104.40000152588</ele>
        <time>2018-03-13T16:48:30.000Z</time>
      </trkpt>
      <trkpt lat="43.9797" lon="5.06479">
        <ele>104.59999847412</ele>
        <time>2018-03-13T16:48:33.000Z</time>
      </trkpt>
      <trkpt lat="43.97949" lon="5.06506">
        <ele>105</ele>
        <time>2018-03-13T16:48:38.000Z</time>
      </trkpt>
      <trkpt lat="43.97944" lon="5.06511">
        <ele>105</ele>
        <time>2018-03-13T16:48:39.000Z</time>
      </trkpt>
      <trkpt lat="43.97928" lon="5.06531">
        <ele>106.19999694824</ele>
        <time>2018-03-13T16:48:43.000Z</time>
      </trkpt>
      <trkpt lat="43.97913" lon="5.06551">
        <ele>108.80000305176</ele>
        <time>2018-03-13T16:48:47.000Z</time>
      </trkpt>
      <trkpt lat="43.97893" lon="5.06575">
        <ele>112.40000152588</ele>
        <time>2018-03-13T16:48:52.000Z</time>
      </trkpt>
      <trkpt lat="43.97889" lon="5.0658">
        <ele>112.80000305176</ele>
        <time>2018-03-13T16:48:53.000Z</time>
      </trkpt>
      <trkpt lat="43.97869" lon="5.06604">
        <ele>114.80000305176</ele>
        <time>2018-03-13T16:48:59.000Z</time>
      </trkpt>
      <trkpt lat="43.97866" lon="5.06612">
        <ele>115.19999694824</ele>
        <time>2018-03-13T16:49:01.000Z</time>
      </trkpt>
      <trkpt lat="43.97865" lon="5.06617">
        <ele>115.19999694824</ele>
        <time>2018-03-13T16:49:02.000Z</time>
      </trkpt>
      <trkpt lat="43.97865" lon="5.06622">
        <ele>115.40000152588</ele>
        <time>2018-03-13T16:49:03.000Z</time>
      </trkpt>
      <trkpt lat="43.97865" lon="5.06647">
        <ele>114</ele>
        <time>2018-03-13T16:49:08.000Z</time>
      </trkpt>
      <trkpt lat="43.97865" lon="5.06651">
        <ele>113.80000305176</ele>
        <time>2018-03-13T16:49:09.000Z</time>
      </trkpt>
      <trkpt lat="43.97863" lon="5.06655">
        <ele>113.40000152588</ele>
        <time>2018-03-13T16:49:10.000Z</time>
      </trkpt>
      <trkpt lat="43.97858" lon="5.0666">
        <ele>113.19999694824</ele>
        <time>2018-03-13T16:49:12.000Z</time>
      </trkpt>
      <trkpt lat="43.97853" lon="5.06666">
        <ele>113.40000152588</ele>
        <time>2018-03-13T16:49:14.000Z</time>
      </trkpt>
      <trkpt lat="43.97845" lon="5.06674">
        <ele>113.80000305176</ele>
        <time>2018-03-13T16:49:17.000Z</time>
      </trkpt>
      <trkpt lat="43.97831" lon="5.06691">
        <ele>114.19999694824</ele>
        <time>2018-03-13T16:49:23.000Z</time>
      </trkpt>
      <trkpt lat="43.97818" lon="5.06707">
        <ele>114.80000305176</ele>
        <time>2018-03-13T16:49:29.000Z</time>
      </trkpt>
      <trkpt lat="43.97814" lon="5.06713">
        <ele>115.40000152588</ele>
        <time>2018-03-13T16:49:34.000Z</time>
      </trkpt>
      <trkpt lat="43.97814" lon="5.06713">
        <ele>115.40000152588</ele>
        <time>2018-03-13T16:49:56.000Z</time>
      </trkpt>
      <trkpt lat="43.97813" lon="5.06715">
        <ele>115.40000152588</ele>
        <time>2018-03-13T16:50:14.000Z</time>
      </trkpt>
      <trkpt lat="43.97813" lon="5.06715">
        <ele>115.40000152588</ele>
        <time>2018-03-13T16:50:37.000Z</time>
      </trkpt>
      <trkpt lat="43.97813" lon="5.06715">
        <ele>115.40000152588</ele>
        <time>2018-03-13T16:50:47.000Z</time>
      </trkpt>
      <trkpt lat="43.97811" lon="5.06717">
        <ele>115.80000305176</ele>
        <time>2018-03-13T16:50:49.000Z</time>
      </trkpt>
      <trkpt lat="43.97809" lon="5.06719">
        <ele>116.19999694824</ele>
        <time>2018-03-13T16:50:51.000Z</time>
      </trkpt>
      <trkpt lat="43.97801" lon="5.06727">
        <ele>117.19999694824</ele>
        <time>2018-03-13T16:50:55.000Z</time>
      </trkpt>
      <trkpt lat="43.97786" lon="5.06741">
        <ele>117.40000152588</ele>
        <time>2018-03-13T16:51:01.000Z</time>
      </trkpt>
      <trkpt lat="43.9777" lon="5.06752">
        <ele>117.19999694824</ele>
        <time>2018-03-13T16:51:06.000Z</time>
      </trkpt>
      <trkpt lat="43.97762" lon="5.06756">
        <ele>117.19999694824</ele>
        <time>2018-03-13T16:51:08.000Z</time>
      </trkpt>
      <trkpt lat="43.97759" lon="5.06758">
        <ele>117.19999694824</ele>
        <time>2018-03-13T16:51:09.000Z</time>
      </trkpt>
      <trkpt lat="43.97738" lon="5.06768">
        <ele>117.80000305176</ele>
        <time>2018-03-13T16:51:14.000Z</time>
      </trkpt>
      <trkpt lat="43.97718" lon="5.06777">
        <ele>118.80000305176</ele>
        <time>2018-03-13T16:51:19.000Z</time>
      </trkpt>
      <trkpt lat="43.97714" lon="5.0678">
        <ele>119</ele>
        <time>2018-03-13T16:51:20.000Z</time>
      </trkpt>
      <trkpt lat="43.97694" lon="5.06788">
        <ele>120.19999694824</ele>
        <time>2018-03-13T16:51:25.000Z</time>
      </trkpt>
      <trkpt lat="43.97672" lon="5.06795">
        <ele>120.80000305176</ele>
        <time>2018-03-13T16:51:31.000Z</time>
      </trkpt>
      <trkpt lat="43.97663" lon="5.06797">
        <ele>121</ele>
        <time>2018-03-13T16:51:33.000Z</time>
      </trkpt>
      <trkpt lat="43.97648" lon="5.068">
        <ele>121.59999847412</ele>
        <time>2018-03-13T16:51:37.000Z</time>
      </trkpt>
      <trkpt lat="43.97633" lon="5.06803">
        <ele>122</ele>
        <time>2018-03-13T16:51:41.000Z</time>
      </trkpt>
      <trkpt lat="43.97622" lon="5.06803">
        <ele>122.59999847412</ele>
        <time>2018-03-13T16:51:44.000Z</time>
      </trkpt>
      <trkpt lat="43.97611" lon="5.06802">
        <ele>123.19999694824</ele>
        <time>2018-03-13T16:51:47.000Z</time>
      </trkpt>
      <trkpt lat="43.97601" lon="5.06799">
        <ele>123.59999847412</ele>
        <time>2018-03-13T16:51:50.000Z</time>
      </trkpt>
      <trkpt lat="43.97598" lon="5.06799">
        <ele>123.59999847412</ele>
        <time>2018-03-13T16:51:51.000Z</time>
      </trkpt>
      <trkpt lat="43.97595" lon="5.06798">
        <ele>123.59999847412</ele>
        <time>2018-03-13T16:51:52.000Z</time>
      </trkpt>
      <trkpt lat="43.97588" lon="5.06798">
        <ele>123.59999847412</ele>
        <time>2018-03-13T16:51:56.000Z</time>
      </trkpt>
      <trkpt lat="43.97588" lon="5.06798">
        <ele>123.80000305176</ele>
        <time>2018-03-13T16:52:02.000Z</time>
      </trkpt>
      <trkpt lat="43.97588" lon="5.06798">
        <ele>123.80000305176</ele>
        <time>2018-03-13T16:52:22.000Z</time>
      </trkpt>
      <trkpt lat="43.97588" lon="5.06798">
        <ele>123.80000305176</ele>
        <time>2018-03-13T16:52:39.000Z</time>
      </trkpt>
      <trkpt lat="43.97588" lon="5.06798">
        <ele>123.59999847412</ele>
        <time>2018-03-13T16:53:00.000Z</time>
      </trkpt>
      <trkpt lat="43.97588" lon="5.068">
        <ele>123.59999847412</ele>
        <time>2018-03-13T16:53:01.000Z</time>
      </trkpt>
      <trkpt lat="43.97593" lon="5.06811">
        <ele>122.80000305176</ele>
        <time>2018-03-13T16:53:04.000Z</time>
      </trkpt>
      <trkpt lat="43.97596" lon="5.06816">
        <ele>122.59999847412</ele>
        <time>2018-03-13T16:53:05.000Z</time>
      </trkpt>
      <trkpt lat="43.976" lon="5.06821">
        <ele>122.40000152588</ele>
        <time>2018-03-13T16:53:06.000Z</time>
      </trkpt>
      <trkpt lat="43.97604" lon="5.06827">
        <ele>122</ele>
        <time>2018-03-13T16:53:07.000Z</time>
      </trkpt>
      <trkpt lat="43.97608" lon="5.06834">
        <ele>121.40000152588</ele>
        <time>2018-03-13T16:53:08.000Z</time>
      </trkpt>
      <trkpt lat="43.97614" lon="5.06859">
        <ele>119.59999847412</ele>
        <time>2018-03-13T16:53:11.000Z</time>
      </trkpt>
      <trkpt lat="43.9761" lon="5.06872">
        <ele>119.19999694824</ele>
        <time>2018-03-13T16:53:13.000Z</time>
      </trkpt>
      <trkpt lat="43.97606" lon="5.06876">
        <ele>119.19999694824</ele>
        <time>2018-03-13T16:53:14.000Z</time>
      </trkpt>
      <trkpt lat="43.97601" lon="5.0688">
        <ele>119.40000152588</ele>
        <time>2018-03-13T16:53:15.000Z</time>
      </trkpt>
      <trkpt lat="43.97589" lon="5.0689">
        <ele>119.80000305176</ele>
        <time>2018-03-13T16:53:17.000Z</time>
      </trkpt>
      <trkpt lat="43.97584" lon="5.06896">
        <ele>120.19999694824</ele>
        <time>2018-03-13T16:53:18.000Z</time>
      </trkpt>
      <trkpt lat="43.9758" lon="5.06904">
        <ele>120.40000152588</ele>
        <time>2018-03-13T16:53:19.000Z</time>
      </trkpt>
      <trkpt lat="43.97577" lon="5.06918">
        <ele>120.40000152588</ele>
        <time>2018-03-13T16:53:21.000Z</time>
      </trkpt>
      <trkpt lat="43.97578" lon="5.06924">
        <ele>120.40000152588</ele>
        <time>2018-03-13T16:53:22.000Z</time>
      </trkpt>
      <trkpt lat="43.97583" lon="5.06933">
        <ele>120.19999694824</ele>
        <time>2018-03-13T16:53:24.000Z</time>
      </trkpt>
      <trkpt lat="43.97589" lon="5.06942">
        <ele>120</ele>
        <time>2018-03-13T16:53:26.000Z</time>
      </trkpt>
      <trkpt lat="43.97598" lon="5.06955">
        <ele>119.40000152588</ele>
        <time>2018-03-13T16:53:29.000Z</time>
      </trkpt>
      <trkpt lat="43.97601" lon="5.0696">
        <ele>119.40000152588</ele>
        <time>2018-03-13T16:53:30.000Z</time>
      </trkpt>
      <trkpt lat="43.9763" lon="5.06993">
        <ele>120.19999694824</ele>
        <time>2018-03-13T16:53:37.000Z</time>
      </trkpt>
      <trkpt lat="43.97643" lon="5.07007">
        <ele>120.59999847412</ele>
        <time>2018-03-13T16:53:40.000Z</time>
      </trkpt>
      <trkpt lat="43.97645" lon="5.07014">
        <ele>121</ele>
        <time>2018-03-13T16:53:41.000Z</time>
      </trkpt>
      <trkpt lat="43.97649" lon="5.07038">
        <ele>122.19999694824</ele>
        <time>2018-03-13T16:53:45.000Z</time>
      </trkpt>
      <trkpt lat="43.9765" lon="5.07041">
        <ele>122.40000152588</ele>
        <time>2018-03-13T16:53:48.000Z</time>
      </trkpt>
      <trkpt lat="43.9765" lon="5.07041">
        <ele>122.40000152588</ele>
        <time>2018-03-13T16:54:03.000Z</time>
      </trkpt>
      <trkpt lat="43.9765" lon="5.07041">
        <ele>122.40000152588</ele>
        <time>2018-03-13T16:54:26.000Z</time>
      </trkpt>
      <trkpt lat="43.9765" lon="5.07041">
        <ele>122.40000152588</ele>
        <time>2018-03-13T16:54:48.000Z</time>
      </trkpt>
      <trkpt lat="43.9765" lon="5.07041">
        <ele>122.40000152588</ele>
        <time>2018-03-13T16:55:12.000Z</time>
      </trkpt>
      <trkpt lat="43.9765" lon="5.07041">
        <ele>122.40000152588</ele>
        <time>2018-03-13T16:55:34.000Z</time>
      </trkpt>
      <trkpt lat="43.97651" lon="5.0704">
        <ele>122.40000152588</ele>
        <time>2018-03-13T16:56:02.000Z</time>
      </trkpt>
      <trkpt lat="43.97651" lon="5.0704">
        <ele>122.40000152588</ele>
        <time>2018-03-13T16:56:22.000Z</time>
      </trkpt>
      <trkpt lat="43.97653" lon="5.07043">
        <ele>122.40000152588</ele>
        <time>2018-03-13T16:56:26.000Z</time>
      </trkpt>
      <trkpt lat="43.97655" lon="5.07044">
        <ele>122.40000152588</ele>
        <time>2018-03-13T16:56:27.000Z</time>
      </trkpt>
      <trkpt lat="43.97668" lon="5.07042">
        <ele>121.80000305176</ele>
        <time>2018-03-13T16:56:31.000Z</time>
      </trkpt>
      <trkpt lat="43.97683" lon="5.0704">
        <ele>121.19999694824</ele>
        <time>2018-03-13T16:56:37.000Z</time>
      </trkpt>
      <trkpt lat="43.97684" lon="5.0704">
        <ele>121.19999694824</ele>
        <time>2018-03-13T16:56:45.000Z</time>
      </trkpt>
      <trkpt lat="43.97686" lon="5.0704">
        <ele>121</ele>
        <time>2018-03-13T16:56:58.000Z</time>
      </trkpt>
      <trkpt lat="43.97701" lon="5.07036">
        <ele>119.80000305176</ele>
        <time>2018-03-13T16:57:02.000Z</time>
      </trkpt>
      <trkpt lat="43.97729" lon="5.07028">
        <ele>117.40000152588</ele>
        <time>2018-03-13T16:57:07.000Z</time>
      </trkpt>
      <trkpt lat="43.97735" lon="5.07026">
        <ele>116.80000305176</ele>
        <time>2018-03-13T16:57:08.000Z</time>
      </trkpt>
      <trkpt lat="43.97774" lon="5.07009">
        <ele>114.59999847412</ele>
        <time>2018-03-13T16:57:15.000Z</time>
      </trkpt>
      <trkpt lat="43.97821" lon="5.06987">
        <ele>114.59999847412</ele>
        <time>2018-03-13T16:57:23.000Z</time>
      </trkpt>
      <trkpt lat="43.97845" lon="5.06974">
        <ele>114.40000152588</ele>
        <time>2018-03-13T16:57:27.000Z</time>
      </trkpt>
      <trkpt lat="43.97875" lon="5.06957">
        <ele>114</ele>
        <time>2018-03-13T16:57:32.000Z</time>
      </trkpt>
      <trkpt lat="43.97921" lon="5.06929">
        <ele>113.40000152588</ele>
        <time>2018-03-13T16:57:40.000Z</time>
      </trkpt>
      <trkpt lat="43.9797" lon="5.06902">
        <ele>113.80000305176</ele>
        <time>2018-03-13T16:57:49.000Z</time>
      </trkpt>
      <trkpt lat="43.97987" lon="5.06895">
        <ele>113.80000305176</ele>
        <time>2018-03-13T16:57:54.000Z</time>
      </trkpt>
      <trkpt lat="43.97988" lon="5.06895">
        <ele>113.80000305176</ele>
        <time>2018-03-13T16:57:58.000Z</time>
      </trkpt>
      <trkpt lat="43.97988" lon="5.06895">
        <ele>113.80000305176</ele>
        <time>2018-03-13T16:58:09.000Z</time>
      </trkpt>
      <trkpt lat="43.97988" lon="5.06895">
        <ele>113.80000305176</ele>
        <time>2018-03-13T16:58:24.000Z</time>
      </trkpt>
      <trkpt lat="43.97988" lon="5.06895">
        <ele>113.59999847412</ele>
        <time>2018-03-13T16:58:42.000Z</time>
      </trkpt>
      <trkpt lat="43.97988" lon="5.06894">
        <ele>113.59999847412</ele>
        <time>2018-03-13T16:58:43.000Z</time>
      </trkpt>
      <trkpt lat="43.97994" lon="5.06892">
        <ele>113.59999847412</ele>
        <time>2018-03-13T16:58:47.000Z</time>
      </trkpt>
      <trkpt lat="43.98013" lon="5.06886">
        <ele>113.59999847412</ele>
        <time>2018-03-13T16:58:52.000Z</time>
      </trkpt>
      <trkpt lat="43.9804" lon="5.06878">
        <ele>114.19999694824</ele>
        <time>2018-03-13T16:58:58.000Z</time>
      </trkpt>
      <trkpt lat="43.98079" lon="5.06869">
        <ele>116.40000152588</ele>
        <time>2018-03-13T16:59:06.000Z</time>
      </trkpt>
      <trkpt lat="43.98114" lon="5.06864">
        <ele>119</ele>
        <time>2018-03-13T16:59:13.000Z</time>
      </trkpt>
      <trkpt lat="43.98123" lon="5.06862">
        <ele>119.80000305176</ele>
        <time>2018-03-13T16:59:15.000Z</time>
      </trkpt>
      <trkpt lat="43.98127" lon="5.06862">
        <ele>120.19999694824</ele>
        <time>2018-03-13T16:59:16.000Z</time>
      </trkpt>
      <trkpt lat="43.98132" lon="5.06862">
        <ele>120.59999847412</ele>
        <time>2018-03-13T16:59:18.000Z</time>
      </trkpt>
      <trkpt lat="43.98132" lon="5.06862">
        <ele>120.59999847412</ele>
        <time>2018-03-13T16:59:22.000Z</time>
      </trkpt>
      <trkpt lat="43.98132" lon="5.06862">
        <ele>120.59999847412</ele>
        <time>2018-03-13T16:59:36.000Z</time>
      </trkpt>
      <trkpt lat="43.98132" lon="5.06862">
        <ele>120.59999847412</ele>
        <time>2018-03-13T16:59:58.000Z</time>
      </trkpt>
      <trkpt lat="43.98132" lon="5.06862">
        <ele>120.59999847412</ele>
        <time>2018-03-13T17:00:12.000Z</time>
      </trkpt>
      <trkpt lat="43.98134" lon="5.06861">
        <ele>120.80000305176</ele>
        <time>2018-03-13T17:00:28.000Z</time>
      </trkpt>
      <trkpt lat="43.98136" lon="5.0686">
        <ele>120.80000305176</ele>
        <time>2018-03-13T17:00:29.000Z</time>
      </trkpt>
      <trkpt lat="43.98141" lon="5.06858">
        <ele>121.19999694824</ele>
        <time>2018-03-13T17:00:31.000Z</time>
      </trkpt>
      <trkpt lat="43.98153" lon="5.06855">
        <ele>122.40000152588</ele>
        <time>2018-03-13T17:00:34.000Z</time>
      </trkpt>
      <trkpt lat="43.98163" lon="5.06853">
        <ele>123.19999694824</ele>
        <time>2018-03-13T17:00:36.000Z</time>
      </trkpt>
      <trkpt lat="43.98182" lon="5.06851">
        <ele>124.40000152588</ele>
        <time>2018-03-13T17:00:40.000Z</time>
      </trkpt>
      <trkpt lat="43.98192" lon="5.0685">
        <ele>124.80000305176</ele>
        <time>2018-03-13T17:00:42.000Z</time>
      </trkpt>
      <trkpt lat="43.98207" lon="5.0685">
        <ele>124.40000152588</ele>
        <time>2018-03-13T17:00:45.000Z</time>
      </trkpt>
      <trkpt lat="43.98212" lon="5.0685">
        <ele>124.40000152588</ele>
        <time>2018-03-13T17:00:46.000Z</time>
      </trkpt>
      <trkpt lat="43.9825" lon="5.06852">
        <ele>123.59999847412</ele>
        <time>2018-03-13T17:00:53.000Z</time>
      </trkpt>
      <trkpt lat="43.98254" lon="5.06853">
        <ele>123.40000152588</ele>
        <time>2018-03-13T17:00:56.000Z</time>
      </trkpt>
      <trkpt lat="43.98254" lon="5.06853">
        <ele>123.40000152588</ele>
        <time>2018-03-13T17:01:04.000Z</time>
      </trkpt>
      <trkpt lat="43.98255" lon="5.06853">
        <ele>123.40000152588</ele>
        <time>2018-03-13T17:01:11.000Z</time>
      </trkpt>
      <trkpt lat="43.98255" lon="5.06853">
        <ele>123.40000152588</ele>
        <time>2018-03-13T17:01:28.000Z</time>
      </trkpt>
      <trkpt lat="43.98255" lon="5.06853">
        <ele>123.40000152588</ele>
        <time>2018-03-13T17:01:44.000Z</time>
      </trkpt>
      <trkpt lat="43.98254" lon="5.06853">
        <ele>123.40000152588</ele>
        <time>2018-03-13T17:02:01.000Z</time>
      </trkpt>
      <trkpt lat="43.98254" lon="5.06853">
        <ele>123.40000152588</ele>
        <time>2018-03-13T17:02:21.000Z</time>
      </trkpt>
      <trkpt lat="43.98254" lon="5.06853">
        <ele>123.40000152588</ele>
        <time>2018-03-13T17:02:44.000Z</time>
      </trkpt>
      <trkpt lat="43.98254" lon="5.06853">
        <ele>123.40000152588</ele>
        <time>2018-03-13T17:02:57.000Z</time>
      </trkpt>
      <trkpt lat="43.98255" lon="5.06853">
        <ele>123.40000152588</ele>
        <time>2018-03-13T17:03:10.000Z</time>
      </trkpt>
      <trkpt lat="43.98255" lon="5.06853">
        <ele>123.40000152588</ele>
        <time>2018-03-13T17:03:21.000Z</time>
      </trkpt>
      <trkpt lat="43.98255" lon="5.06853">
        <ele>123.40000152588</ele>
        <time>2018-03-13T17:03:30.000Z</time>
      </trkpt>
      <trkpt lat="43.98255" lon="5.06853">
        <ele>123.40000152588</ele>
        <time>2018-03-13T17:03:42.000Z</time>
      </trkpt>
      <trkpt lat="43.98255" lon="5.06853">
        <ele>123.40000152588</ele>
        <time>2018-03-13T17:03:50.000Z</time>
      </trkpt>
      <trkpt lat="43.98255" lon="5.06853">
        <ele>123.40000152588</ele>
        <time>2018-03-13T17:04:00.000Z</time>
      </trkpt>
      <trkpt lat="43.98255" lon="5.06853">
        <ele>123.40000152588</ele>
        <time>2018-03-13T17:04:09.000Z</time>
      </trkpt>
      <trkpt lat="43.98255" lon="5.06853">
        <ele>123.40000152588</ele>
        <time>2018-03-13T17:04:19.000Z</time>
      </trkpt>
      <trkpt lat="43.98255" lon="5.06853">
        <ele>123.19999694824</ele>
        <time>2018-03-13T17:04:27.000Z</time>
      </trkpt>
      <trkpt lat="43.98255" lon="5.06853">
        <ele>123.19999694824</ele>
        <time>2018-03-13T17:04:32.000Z</time>
      </trkpt>
      <trkpt lat="43.98255" lon="5.06853">
        <ele>123.19999694824</ele>
        <time>2018-03-13T17:04:43.000Z</time>
      </trkpt>
      <trkpt lat="43.98255" lon="5.06853">
        <ele>123.19999694824</ele>
        <time>2018-03-13T17:04:59.000Z</time>
      </trkpt>
      <trkpt lat="43.98256" lon="5.06852">
        <ele>123.19999694824</ele>
        <time>2018-03-13T17:05:14.000Z</time>
      </trkpt>
      <trkpt lat="43.98256" lon="5.06852">
        <ele>123.19999694824</ele>
        <time>2018-03-13T17:05:27.000Z</time>
      </trkpt>
      <trkpt lat="43.98256" lon="5.06852">
        <ele>123.19999694824</ele>
        <time>2018-03-13T17:05:40.000Z</time>
      </trkpt>
      <trkpt lat="43.98256" lon="5.06853">
        <ele>123.19999694824</ele>
        <time>2018-03-13T17:05:57.000Z</time>
      </trkpt>
      <trkpt lat="43.98256" lon="5.06853">
        <ele>123.19999694824</ele>
        <time>2018-03-13T17:06:12.000Z</time>
      </trkpt>
      <trkpt lat="43.98256" lon="5.06852">
        <ele>123.19999694824</ele>
        <time>2018-03-13T17:06:28.000Z</time>
      </trkpt>
      <trkpt lat="43.98263" lon="5.06851">
        <ele>122.40000152588</ele>
        <time>2018-03-13T17:06:32.000Z</time>
      </trkpt>
      <trkpt lat="43.98275" lon="5.06851">
        <ele>121.40000152588</ele>
        <time>2018-03-13T17:06:35.000Z</time>
      </trkpt>
      <trkpt lat="43.98305" lon="5.06851">
        <ele>119.19999694824</ele>
        <time>2018-03-13T17:06:40.000Z</time>
      </trkpt>
      <trkpt lat="43.98311" lon="5.06852">
        <ele>118.80000305176</ele>
        <time>2018-03-13T17:06:41.000Z</time>
      </trkpt>
      <trkpt lat="43.98362" lon="5.06851">
        <ele>116</ele>
        <time>2018-03-13T17:06:49.000Z</time>
      </trkpt>
      <trkpt lat="43.98406" lon="5.06841">
        <ele>114.80000305176</ele>
        <time>2018-03-13T17:06:56.000Z</time>
      </trkpt>
      <trkpt lat="43.98453" lon="5.06834">
        <ele>115.40000152588</ele>
        <time>2018-03-13T17:07:04.000Z</time>
      </trkpt>
      <trkpt lat="43.98486" lon="5.06836">
        <ele>115.59999847412</ele>
        <time>2018-03-13T17:07:11.000Z</time>
      </trkpt>
      <trkpt lat="43.98495" lon="5.06837">
        <ele>116.19999694824</ele>
        <time>2018-03-13T17:07:13.000Z</time>
      </trkpt>
      <trkpt lat="43.98512" lon="5.06839">
        <ele>117</ele>
        <time>2018-03-13T17:07:17.000Z</time>
      </trkpt>
      <trkpt lat="43.98513" lon="5.06842">
        <ele>117.19999694824</ele>
        <time>2018-03-13T17:07:18.000Z</time>
      </trkpt>
      <trkpt lat="43.98509" lon="5.06844">
        <ele>117.19999694824</ele>
        <time>2018-03-13T17:07:21.000Z</time>
      </trkpt>
      <trkpt lat="43.98508" lon="5.06844">
        <ele>117</ele>
        <time>2018-03-13T17:07:22.000Z</time>
      </trkpt>
      <trkpt lat="43.98507" lon="5.06843">
        <ele>117</ele>
        <time>2018-03-13T17:07:27.000Z</time>
      </trkpt>
      <trkpt lat="43.98507" lon="5.06843">
        <ele>117</ele>
        <time>2018-03-13T17:07:45.000Z</time>
      </trkpt>
      <trkpt lat="43.98508" lon="5.06843">
        <ele>117</ele>
        <time>2018-03-13T17:08:04.000Z</time>
      </trkpt>
      <trkpt lat="43.98508" lon="5.06843">
        <ele>117</ele>
        <time>2018-03-13T17:08:24.000Z</time>
      </trkpt>
      <trkpt lat="43.98508" lon="5.06843">
        <ele>117</ele>
        <time>2018-03-13T17:08:43.000Z</time>
      </trkpt>
      <trkpt lat="43.98507" lon="5.06844">
        <ele>117</ele>
        <time>2018-03-13T17:09:01.000Z</time>
      </trkpt>
      <trkpt lat="43.98501" lon="5.06856">
        <ele>117.40000152588</ele>
        <time>2018-03-13T17:09:05.000Z</time>
      </trkpt>
      <trkpt lat="43.98499" lon="5.0686">
        <ele>117.59999847412</ele>
        <time>2018-03-13T17:09:06.000Z</time>
      </trkpt>
      <trkpt lat="43.98487" lon="5.0688">
        <ele>119</ele>
        <time>2018-03-13T17:09:10.000Z</time>
      </trkpt>
      <trkpt lat="43.98473" lon="5.06901">
        <ele>119.19999694824</ele>
        <time>2018-03-13T17:09:14.000Z</time>
      </trkpt>
      <trkpt lat="43.98462" lon="5.06915">
        <ele>120.19999694824</ele>
        <time>2018-03-13T17:09:17.000Z</time>
      </trkpt>
      <trkpt lat="43.98429" lon="5.06941">
        <ele>122.19999694824</ele>
        <time>2018-03-13T17:09:25.000Z</time>
      </trkpt>
      <trkpt lat="43.98422" lon="5.06944">
        <ele>122.40000152588</ele>
        <time>2018-03-13T17:09:27.000Z</time>
      </trkpt>
      <trkpt lat="43.98421" lon="5.06944">
        <ele>122.59999847412</ele>
        <time>2018-03-13T17:09:29.000Z</time>
      </trkpt>
      <trkpt lat="43.98421" lon="5.06944">
        <ele>122.59999847412</ele>
        <time>2018-03-13T17:09:39.000Z</time>
      </trkpt>
      <trkpt lat="43.98421" lon="5.06944">
        <ele>122.59999847412</ele>
        <time>2018-03-13T17:09:51.000Z</time>
      </trkpt>
      <trkpt lat="43.98421" lon="5.06944">
        <ele>122.59999847412</ele>
        <time>2018-03-13T17:10:02.000Z</time>
      </trkpt>
      <trkpt lat="43.98422" lon="5.06944">
        <ele>122.59999847412</ele>
        <time>2018-03-13T17:10:14.000Z</time>
      </trkpt>
      <trkpt lat="43.9842" lon="5.06946">
        <ele>122.80000305176</ele>
        <time>2018-03-13T17:10:20.000Z</time>
      </trkpt>
      <trkpt lat="43.98416" lon="5.06948">
        <ele>123.40000152588</ele>
        <time>2018-03-13T17:10:22.000Z</time>
      </trkpt>
      <trkpt lat="43.98404" lon="5.06951">
        <ele>124.59999847412</ele>
        <time>2018-03-13T17:10:25.000Z</time>
      </trkpt>
      <trkpt lat="43.984" lon="5.06953">
        <ele>125.19999694824</ele>
        <time>2018-03-13T17:10:26.000Z</time>
      </trkpt>
      <trkpt lat="43.98378" lon="5.06957">
        <ele>127.19999694824</ele>
        <time>2018-03-13T17:10:31.000Z</time>
      </trkpt>
      <trkpt lat="43.98374" lon="5.06958">
        <ele>127.80000305176</ele>
        <time>2018-03-13T17:10:32.000Z</time>
      </trkpt>
      <trkpt lat="43.98369" lon="5.0696">
        <ele>128.19999694824</ele>
        <time>2018-03-13T17:10:33.000Z</time>
      </trkpt>
      <trkpt lat="43.98361" lon="5.06964">
        <ele>128.80000305176</ele>
        <time>2018-03-13T17:10:35.000Z</time>
      </trkpt>
      <trkpt lat="43.98353" lon="5.06967">
        <ele>129.60000610352</ele>
        <time>2018-03-13T17:10:37.000Z</time>
      </trkpt>
      <trkpt lat="43.98348" lon="5.06969">
        <ele>130</ele>
        <time>2018-03-13T17:10:38.000Z</time>
      </trkpt>
      <trkpt lat="43.98345" lon="5.06971">
        <ele>130.39999389648</ele>
        <time>2018-03-13T17:10:39.000Z</time>
      </trkpt>
      <trkpt lat="43.98338" lon="5.06976">
        <ele>131.19999694824</ele>
        <time>2018-03-13T17:10:41.000Z</time>
      </trkpt>
      <trkpt lat="43.9833" lon="5.06981">
        <ele>132</ele>
        <time>2018-03-13T17:10:43.000Z</time>
      </trkpt>
      <trkpt lat="43.98323" lon="5.06987">
        <ele>132.80000305176</ele>
        <time>2018-03-13T17:10:45.000Z</time>
      </trkpt>
      <trkpt lat="43.9832" lon="5.06989">
        <ele>133</ele>
        <time>2018-03-13T17:10:46.000Z</time>
      </trkpt>
      <trkpt lat="43.98317" lon="5.06991">
        <ele>133.39999389648</ele>
        <time>2018-03-13T17:10:47.000Z</time>
      </trkpt>
      <trkpt lat="43.98311" lon="5.06997">
        <ele>134</ele>
        <time>2018-03-13T17:10:49.000Z</time>
      </trkpt>
      <trkpt lat="43.98306" lon="5.07003">
        <ele>134.60000610352</ele>
        <time>2018-03-13T17:10:51.000Z</time>
      </trkpt>
      <trkpt lat="43.98304" lon="5.07006">
        <ele>135</ele>
        <time>2018-03-13T17:10:52.000Z</time>
      </trkpt>
      <trkpt lat="43.98302" lon="5.07008">
        <ele>135.19999694824</ele>
        <time>2018-03-13T17:10:53.000Z</time>
      </trkpt>
      <trkpt lat="43.98299" lon="5.07011">
        <ele>135.60000610352</ele>
        <time>2018-03-13T17:10:55.000Z</time>
      </trkpt>
      <trkpt lat="43.98298" lon="5.07012">
        <ele>135.80000305176</ele>
        <time>2018-03-13T17:10:56.000Z</time>
      </trkpt>
      <trkpt lat="43.98297" lon="5.07012">
        <ele>135.80000305176</ele>
        <time>2018-03-13T17:11:02.000Z</time>
      </trkpt>
      <trkpt lat="43.98297" lon="5.07012">
        <ele>135.80000305176</ele>
        <time>2018-03-13T17:11:19.000Z</time>
      </trkpt>
      <trkpt lat="43.98297" lon="5.07012">
        <ele>135.80000305176</ele>
        <time>2018-03-13T17:11:35.000Z</time>
      </trkpt>
      <trkpt lat="43.98297" lon="5.07012">
        <ele>135.80000305176</ele>
        <time>2018-03-13T17:11:50.000Z</time>
      </trkpt>
      <trkpt lat="43.98296" lon="5.07015">
        <ele>136</ele>
        <time>2018-03-13T17:11:53.000Z</time>
      </trkpt>
      <trkpt lat="43.98296" lon="5.07017">
        <ele>136</ele>
        <time>2018-03-13T17:11:54.000Z</time>
      </trkpt>
      <trkpt lat="43.98295" lon="5.07021">
        <ele>136.19999694824</ele>
        <time>2018-03-13T17:11:56.000Z</time>
      </trkpt>
      <trkpt lat="43.98295" lon="5.07025">
        <ele>136.39999389648</ele>
        <time>2018-03-13T17:11:57.000Z</time>
      </trkpt>
      <trkpt lat="43.98292" lon="5.07031">
        <ele>136.80000305176</ele>
        <time>2018-03-13T17:11:59.000Z</time>
      </trkpt>
      <trkpt lat="43.98288" lon="5.07041">
        <ele>137.39999389648</ele>
        <time>2018-03-13T17:12:01.000Z</time>
      </trkpt>
      <trkpt lat="43.98283" lon="5.07055">
        <ele>137.80000305176</ele>
        <time>2018-03-13T17:12:04.000Z</time>
      </trkpt>
      <trkpt lat="43.98275" lon="5.07072">
        <ele>138.19999694824</ele>
        <time>2018-03-13T17:12:08.000Z</time>
      </trkpt>
      <trkpt lat="43.98273" lon="5.07076">
        <ele>138.19999694824</ele>
        <time>2018-03-13T17:12:09.000Z</time>
      </trkpt>
      <trkpt lat="43.98267" lon="5.07083">
        <ele>138.19999694824</ele>
        <time>2018-03-13T17:12:11.000Z</time>
      </trkpt>
      <trkpt lat="43.98262" lon="5.0709">
        <ele>138.19999694824</ele>
        <time>2018-03-13T17:12:13.000Z</time>
      </trkpt>
      <trkpt lat="43.98256" lon="5.07095">
        <ele>138.19999694824</ele>
        <time>2018-03-13T17:12:15.000Z</time>
      </trkpt>
      <trkpt lat="43.98241" lon="5.07114">
        <ele>139.19999694824</ele>
        <time>2018-03-13T17:12:21.000Z</time>
      </trkpt>
      <trkpt lat="43.98238" lon="5.07118">
        <ele>139.39999389648</ele>
        <time>2018-03-13T17:12:22.000Z</time>
      </trkpt>
      <trkpt lat="43.98218" lon="5.07141">
        <ele>141.39999389648</ele>
        <time>2018-03-13T17:12:29.000Z</time>
      </trkpt>
      <trkpt lat="43.98198" lon="5.07163">
        <ele>143</ele>
        <time>2018-03-13T17:12:36.000Z</time>
      </trkpt>
      <trkpt lat="43.98196" lon="5.07167">
        <ele>143.19999694824</ele>
        <time>2018-03-13T17:12:37.000Z</time>
      </trkpt>
      <trkpt lat="43.98182" lon="5.07185">
        <ele>143.80000305176</ele>
        <time>2018-03-13T17:12:43.000Z</time>
      </trkpt>
      <trkpt lat="43.98167" lon="5.07207">
        <ele>144.80000305176</ele>
        <time>2018-03-13T17:12:49.000Z</time>
      </trkpt>
      <trkpt lat="43.98165" lon="5.07211">
        <ele>145</ele>
        <time>2018-03-13T17:12:50.000Z</time>
      </trkpt>
      <trkpt lat="43.98145" lon="5.07243">
        <ele>145.60000610352</ele>
        <time>2018-03-13T17:12:57.000Z</time>
      </trkpt>
      <trkpt lat="43.98131" lon="5.07276">
        <ele>144</ele>
        <time>2018-03-13T17:13:04.000Z</time>
      </trkpt>
      <trkpt lat="43.98122" lon="5.07309">
        <ele>143.39999389648</ele>
        <time>2018-03-13T17:13:11.000Z</time>
      </trkpt>
      <trkpt lat="43.98114" lon="5.07336">
        <ele>142.80000305176</ele>
        <time>2018-03-13T17:13:18.000Z</time>
      </trkpt>
      <trkpt lat="43.98114" lon="5.07336">
        <ele>142.80000305176</ele>
        <time>2018-03-13T17:13:24.000Z</time>
      </trkpt>
      <trkpt lat="43.98114" lon="5.07336">
        <ele>142.80000305176</ele>
        <time>2018-03-13T17:13:48.000Z</time>
      </trkpt>
      <trkpt lat="43.98114" lon="5.07335">
        <ele>142.80000305176</ele>
        <time>2018-03-13T17:14:11.000Z</time>
      </trkpt>
      <trkpt lat="43.98114" lon="5.07335">
        <ele>142.80000305176</ele>
        <time>2018-03-13T17:14:21.000Z</time>
      </trkpt>
      <trkpt lat="43.98113" lon="5.07337">
        <ele>142.80000305176</ele>
        <time>2018-03-13T17:14:23.000Z</time>
      </trkpt>
      <trkpt lat="43.98113" lon="5.07344">
        <ele>142.60000610352</ele>
        <time>2018-03-13T17:14:25.000Z</time>
      </trkpt>
      <trkpt lat="43.9811" lon="5.07355">
        <ele>142.39999389648</ele>
        <time>2018-03-13T17:14:27.000Z</time>
      </trkpt>
      <trkpt lat="43.98108" lon="5.07369">
        <ele>142</ele>
        <time>2018-03-13T17:14:29.000Z</time>
      </trkpt>
      <trkpt lat="43.981" lon="5.07423">
        <ele>143.39999389648</ele>
        <time>2018-03-13T17:14:36.000Z</time>
      </trkpt>
      <trkpt lat="43.98096" lon="5.07443">
        <ele>144</ele>
        <time>2018-03-13T17:14:39.000Z</time>
      </trkpt>
      <trkpt lat="43.9809" lon="5.07461">
        <ele>144</ele>
        <time>2018-03-13T17:14:42.000Z</time>
      </trkpt>
      <trkpt lat="43.98081" lon="5.07477">
        <ele>144.39999389648</ele>
        <time>2018-03-13T17:14:45.000Z</time>
      </trkpt>
      <trkpt lat="43.98074" lon="5.07486">
        <ele>144.60000610352</ele>
        <time>2018-03-13T17:14:47.000Z</time>
      </trkpt>
      <trkpt lat="43.98059" lon="5.07507">
        <ele>144.60000610352</ele>
        <time>2018-03-13T17:14:52.000Z</time>
      </trkpt>
      <trkpt lat="43.98053" lon="5.07517">
        <ele>144.39999389648</ele>
        <time>2018-03-13T17:14:54.000Z</time>
      </trkpt>
      <trkpt lat="43.98037" lon="5.07535">
        <ele>143.80000305176</ele>
        <time>2018-03-13T17:14:58.000Z</time>
      </trkpt>
      <trkpt lat="43.98033" lon="5.07538">
        <ele>143.60000610352</ele>
        <time>2018-03-13T17:14:59.000Z</time>
      </trkpt>
      <trkpt lat="43.9803" lon="5.07543">
        <ele>143.39999389648</ele>
        <time>2018-03-13T17:15:00.000Z</time>
      </trkpt>
      <trkpt lat="43.98023" lon="5.07553">
        <ele>143.19999694824</ele>
        <time>2018-03-13T17:15:02.000Z</time>
      </trkpt>
      <trkpt lat="43.98009" lon="5.07565">
        <ele>142.39999389648</ele>
        <time>2018-03-13T17:15:05.000Z</time>
      </trkpt>
      <trkpt lat="43.97999" lon="5.07575">
        <ele>142</ele>
        <time>2018-03-13T17:15:07.000Z</time>
      </trkpt>
      <trkpt lat="43.97993" lon="5.07589">
        <ele>142</ele>
        <time>2018-03-13T17:15:09.000Z</time>
      </trkpt>
      <trkpt lat="43.97985" lon="5.076">
        <ele>141.60000610352</ele>
        <time>2018-03-13T17:15:11.000Z</time>
      </trkpt>
      <trkpt lat="43.97981" lon="5.07606">
        <ele>141.39999389648</ele>
        <time>2018-03-13T17:15:12.000Z</time>
      </trkpt>
      <trkpt lat="43.97974" lon="5.07617">
        <ele>141</ele>
        <time>2018-03-13T17:15:14.000Z</time>
      </trkpt>
      <trkpt lat="43.97966" lon="5.07628">
        <ele>140.39999389648</ele>
        <time>2018-03-13T17:15:16.000Z</time>
      </trkpt>
      <trkpt lat="43.97954" lon="5.07644">
        <ele>140</ele>
        <time>2018-03-13T17:15:19.000Z</time>
      </trkpt>
      <trkpt lat="43.97945" lon="5.07654">
        <ele>139.39999389648</ele>
        <time>2018-03-13T17:15:21.000Z</time>
      </trkpt>
      <trkpt lat="43.97912" lon="5.07689">
        <ele>139.39999389648</ele>
        <time>2018-03-13T17:15:28.000Z</time>
      </trkpt>
      <trkpt lat="43.97898" lon="5.07707">
        <ele>140.19999694824</ele>
        <time>2018-03-13T17:15:31.000Z</time>
      </trkpt>
      <trkpt lat="43.97889" lon="5.07717">
        <ele>141.19999694824</ele>
        <time>2018-03-13T17:15:33.000Z</time>
      </trkpt>
      <trkpt lat="43.97885" lon="5.07722">
        <ele>141.60000610352</ele>
        <time>2018-03-13T17:15:34.000Z</time>
      </trkpt>
      <trkpt lat="43.97859" lon="5.0774">
        <ele>141.80000305176</ele>
        <time>2018-03-13T17:15:40.000Z</time>
      </trkpt>
      <trkpt lat="43.97852" lon="5.07744">
        <ele>141.60000610352</ele>
        <time>2018-03-13T17:15:43.000Z</time>
      </trkpt>
      <trkpt lat="43.9785" lon="5.07745">
        <ele>141.39999389648</ele>
        <time>2018-03-13T17:15:44.000Z</time>
      </trkpt>
      <trkpt lat="43.97848" lon="5.07745">
        <ele>141.39999389648</ele>
        <time>2018-03-13T17:15:48.000Z</time>
      </trkpt>
      <trkpt lat="43.97848" lon="5.07746">
        <ele>141.39999389648</ele>
        <time>2018-03-13T17:15:59.000Z</time>
      </trkpt>
      <trkpt lat="43.97848" lon="5.07746">
        <ele>141.39999389648</ele>
        <time>2018-03-13T17:16:23.000Z</time>
      </trkpt>
      <trkpt lat="43.97848" lon="5.07746">
        <ele>141.39999389648</ele>
        <time>2018-03-13T17:16:42.000Z</time>
      </trkpt>
      <trkpt lat="43.97846" lon="5.07748">
        <ele>141.39999389648</ele>
        <time>2018-03-13T17:16:43.000Z</time>
      </trkpt>
      <trkpt lat="43.97842" lon="5.07752">
        <ele>141.19999694824</ele>
        <time>2018-03-13T17:16:46.000Z</time>
      </trkpt>
      <trkpt lat="43.97841" lon="5.07756">
        <ele>141.39999389648</ele>
        <time>2018-03-13T17:16:47.000Z</time>
      </trkpt>
      <trkpt lat="43.97836" lon="5.0777">
        <ele>141.80000305176</ele>
        <time>2018-03-13T17:16:50.000Z</time>
      </trkpt>
      <trkpt lat="43.97828" lon="5.07783">
        <ele>141.80000305176</ele>
        <time>2018-03-13T17:16:53.000Z</time>
      </trkpt>
      <trkpt lat="43.97823" lon="5.07796">
        <ele>142.19999694824</ele>
        <time>2018-03-13T17:16:56.000Z</time>
      </trkpt>
      <trkpt lat="43.97823" lon="5.07804">
        <ele>142.80000305176</ele>
        <time>2018-03-13T17:16:59.000Z</time>
      </trkpt>
      <trkpt lat="43.97824" lon="5.07805">
        <ele>143</ele>
        <time>2018-03-13T17:17:00.000Z</time>
      </trkpt>
      <trkpt lat="43.97824" lon="5.07805">
        <ele>143</ele>
        <time>2018-03-13T17:17:07.000Z</time>
      </trkpt>
      <trkpt lat="43.97824" lon="5.07805">
        <ele>143</ele>
        <time>2018-03-13T17:17:28.000Z</time>
      </trkpt>
      <trkpt lat="43.97824" lon="5.07805">
        <ele>143</ele>
        <time>2018-03-13T17:17:41.000Z</time>
      </trkpt>
      <trkpt lat="43.97824" lon="5.07805">
        <ele>143</ele>
        <time>2018-03-13T17:17:59.000Z</time>
      </trkpt>
      <trkpt lat="43.97825" lon="5.07804">
        <ele>143</ele>
        <time>2018-03-13T17:18:07.000Z</time>
      </trkpt>
      <trkpt lat="43.97829" lon="5.07801">
        <ele>143.19999694824</ele>
        <time>2018-03-13T17:18:09.000Z</time>
      </trkpt>
      <trkpt lat="43.97831" lon="5.07803">
        <ele>143.39999389648</ele>
        <time>2018-03-13T17:18:11.000Z</time>
      </trkpt>
      <trkpt lat="43.97835" lon="5.07804">
        <ele>143.80000305176</ele>
        <time>2018-03-13T17:18:13.000Z</time>
      </trkpt>
      <trkpt lat="43.97842" lon="5.07806">
        <ele>144.60000610352</ele>
        <time>2018-03-13T17:18:15.000Z</time>
      </trkpt>
      <trkpt lat="43.97852" lon="5.07808">
        <ele>145.60000610352</ele>
        <time>2018-03-13T17:18:17.000Z</time>
      </trkpt>
      <trkpt lat="43.97858" lon="5.0781">
        <ele>146.19999694824</ele>
        <time>2018-03-13T17:18:18.000Z</time>
      </trkpt>
      <trkpt lat="43.97875" lon="5.07812">
        <ele>147.19999694824</ele>
        <time>2018-03-13T17:18:21.000Z</time>
      </trkpt>
      <trkpt lat="43.97897" lon="5.07816">
        <ele>148.80000305176</ele>
        <time>2018-03-13T17:18:25.000Z</time>
      </trkpt>
      <trkpt lat="43.97913" lon="5.07821">
        <ele>150</ele>
        <time>2018-03-13T17:18:28.000Z</time>
      </trkpt>
      <trkpt lat="43.97918" lon="5.07822">
        <ele>150.39999389648</ele>
        <time>2018-03-13T17:18:29.000Z</time>
      </trkpt>
      <trkpt lat="43.97938" lon="5.07826">
        <ele>151.80000305176</ele>
        <time>2018-03-13T17:18:33.000Z</time>
      </trkpt>
      <trkpt lat="43.97947" lon="5.07827">
        <ele>152</ele>
        <time>2018-03-13T17:18:35.000Z</time>
      </trkpt>
      <trkpt lat="43.97954" lon="5.07828">
        <ele>152.19999694824</ele>
        <time>2018-03-13T17:18:37.000Z</time>
      </trkpt>
      <trkpt lat="43.97956" lon="5.0783">
        <ele>152.39999389648</ele>
        <time>2018-03-13T17:18:39.000Z</time>
      </trkpt>
      <trkpt lat="43.97956" lon="5.0783">
        <ele>152.39999389648</ele>
        <time>2018-03-13T17:18:45.000Z</time>
      </trkpt>
      <trkpt lat="43.97956" lon="5.0783">
        <ele>152.39999389648</ele>
        <time>2018-03-13T17:19:08.000Z</time>
      </trkpt>
      <trkpt lat="43.97956" lon="5.0783">
        <ele>152.39999389648</ele>
        <time>2018-03-13T17:19:31.000Z</time>
      </trkpt>
      <trkpt lat="43.97956" lon="5.0783">
        <ele>152.39999389648</ele>
        <time>2018-03-13T17:19:56.000Z</time>
      </trkpt>
      <trkpt lat="43.97956" lon="5.0783">
        <ele>152.39999389648</ele>
        <time>2018-03-13T17:20:05.000Z</time>
      </trkpt>
      <trkpt lat="43.97957" lon="5.07831">
        <ele>152.39999389648</ele>
        <time>2018-03-13T17:20:07.000Z</time>
      </trkpt>
      <trkpt lat="43.97961" lon="5.07835">
        <ele>152.80000305176</ele>
        <time>2018-03-13T17:20:10.000Z</time>
      </trkpt>
      <trkpt lat="43.97965" lon="5.07847">
        <ele>153.60000610352</ele>
        <time>2018-03-13T17:20:14.000Z</time>
      </trkpt>
      <trkpt lat="43.97972" lon="5.07865">
        <ele>154.60000610352</ele>
        <time>2018-03-13T17:20:18.000Z</time>
      </trkpt>
      <trkpt lat="43.97973" lon="5.07869">
        <ele>155</ele>
        <time>2018-03-13T17:20:19.000Z</time>
      </trkpt>
      <trkpt lat="43.97977" lon="5.0788">
        <ele>155.39999389648</ele>
        <time>2018-03-13T17:20:22.000Z</time>
      </trkpt>
      <trkpt lat="43.9798" lon="5.07887">
        <ele>155.39999389648</ele>
        <time>2018-03-13T17:20:24.000Z</time>
      </trkpt>
      <trkpt lat="43.97981" lon="5.0789">
        <ele>155.39999389648</ele>
        <time>2018-03-13T17:20:25.000Z</time>
      </trkpt>
      <trkpt lat="43.97984" lon="5.07902">
        <ele>155.60000610352</ele>
        <time>2018-03-13T17:20:28.000Z</time>
      </trkpt>
      <trkpt lat="43.97985" lon="5.07908">
        <ele>155.60000610352</ele>
        <time>2018-03-13T17:20:30.000Z</time>
      </trkpt>
      <trkpt lat="43.97986" lon="5.07911">
        <ele>155.60000610352</ele>
        <time>2018-03-13T17:20:31.000Z</time>
      </trkpt>
      <trkpt lat="43.97993" lon="5.07925">
        <ele>155.60000610352</ele>
        <time>2018-03-13T17:20:35.000Z</time>
      </trkpt>
      <trkpt lat="43.97994" lon="5.07928">
        <ele>155.60000610352</ele>
        <time>2018-03-13T17:20:36.000Z</time>
      </trkpt>
      <trkpt lat="43.97995" lon="5.07936">
        <ele>156</ele>
        <time>2018-03-13T17:20:39.000Z</time>
      </trkpt>
      <trkpt lat="43.97994" lon="5.07935">
        <ele>156</ele>
        <time>2018-03-13T17:20:43.000Z</time>
      </trkpt>
      <trkpt lat="43.97994" lon="5.07935">
        <ele>156</ele>
        <time>2018-03-13T17:21:12.000Z</time>
      </trkpt>
      <trkpt lat="43.97996" lon="5.07938">
        <ele>156</ele>
        <time>2018-03-13T17:21:28.000Z</time>
      </trkpt>
      <trkpt lat="43.98003" lon="5.0795">
        <ele>156.39999389648</ele>
        <time>2018-03-13T17:21:32.000Z</time>
      </trkpt>
      <trkpt lat="43.9801" lon="5.07958">
        <ele>156.60000610352</ele>
        <time>2018-03-13T17:21:37.000Z</time>
      </trkpt>
      <trkpt lat="43.9801" lon="5.07958">
        <ele>156.60000610352</ele>
        <time>2018-03-13T17:21:48.000Z</time>
      </trkpt>
      <trkpt lat="43.9801" lon="5.07958">
        <ele>156.60000610352</ele>
        <time>2018-03-13T17:22:02.000Z</time>
      </trkpt>
      <trkpt lat="43.98017" lon="5.07968">
        <ele>156.39999389648</ele>
        <time>2018-03-13T17:22:05.000Z</time>
      </trkpt>
      <trkpt lat="43.98035" lon="5.07995">
        <ele>156.80000305176</ele>
        <time>2018-03-13T17:22:11.000Z</time>
      </trkpt>
      <trkpt lat="43.98041" lon="5.08003">
        <ele>157.39999389648</ele>
        <time>2018-03-13T17:22:13.000Z</time>
      </trkpt>
      <trkpt lat="43.98057" lon="5.08024">
        <ele>158.60000610352</ele>
        <time>2018-03-13T17:22:17.000Z</time>
      </trkpt>
      <trkpt lat="43.98065" lon="5.08041">
        <ele>159.39999389648</ele>
        <time>2018-03-13T17:22:20.000Z</time>
      </trkpt>
      <trkpt lat="43.9807" lon="5.08055">
        <ele>159.60000610352</ele>
        <time>2018-03-13T17:22:22.000Z</time>
      </trkpt>
      <trkpt lat="43.98072" lon="5.08062">
        <ele>159.60000610352</ele>
        <time>2018-03-13T17:22:23.000Z</time>
      </trkpt>
      <trkpt lat="43.98074" lon="5.08068">
        <ele>159.60000610352</ele>
        <time>2018-03-13T17:22:24.000Z</time>
      </trkpt>
      <trkpt lat="43.98081" lon="5.08086">
        <ele>159.80000305176</ele>
        <time>2018-03-13T17:22:27.000Z</time>
      </trkpt>
      <trkpt lat="43.98089" lon="5.08112">
        <ele>160</ele>
        <time>2018-03-13T17:22:31.000Z</time>
      </trkpt>
      <trkpt lat="43.98092" lon="5.08117">
        <ele>160.19999694824</ele>
        <time>2018-03-13T17:22:32.000Z</time>
      </trkpt>
      <trkpt lat="43.98099" lon="5.08134">
        <ele>160.60000610352</ele>
        <time>2018-03-13T17:22:35.000Z</time>
      </trkpt>
      <trkpt lat="43.98113" lon="5.08164">
        <ele>161</ele>
        <time>2018-03-13T17:22:40.000Z</time>
      </trkpt>
      <trkpt lat="43.98115" lon="5.0817">
        <ele>161</ele>
        <time>2018-03-13T17:22:41.000Z</time>
      </trkpt>
      <trkpt lat="43.98127" lon="5.08194">
        <ele>161</ele>
        <time>2018-03-13T17:22:45.000Z</time>
      </trkpt>
      <trkpt lat="43.98135" lon="5.08215">
        <ele>161.19999694824</ele>
        <time>2018-03-13T17:22:48.000Z</time>
      </trkpt>
      <trkpt lat="43.98142" lon="5.08232">
        <ele>161.80000305176</ele>
        <time>2018-03-13T17:22:50.000Z</time>
      </trkpt>
      <trkpt lat="43.98148" lon="5.08249">
        <ele>162.39999389648</ele>
        <time>2018-03-13T17:22:52.000Z</time>
      </trkpt>
      <trkpt lat="43.98165" lon="5.08293">
        <ele>164</ele>
        <time>2018-03-13T17:22:58.000Z</time>
      </trkpt>
      <trkpt lat="43.9818" lon="5.08323">
        <ele>164.80000305176</ele>
        <time>2018-03-13T17:23:03.000Z</time>
      </trkpt>
      <trkpt lat="43.9819" lon="5.08357">
        <ele>165.60000610352</ele>
        <time>2018-03-13T17:23:09.000Z</time>
      </trkpt>
      <trkpt lat="43.98195" lon="5.08367">
        <ele>165.80000305176</ele>
        <time>2018-03-13T17:23:11.000Z</time>
      </trkpt>
      <trkpt lat="43.982" lon="5.08368">
        <ele>165.80000305176</ele>
        <time>2018-03-13T17:23:13.000Z</time>
      </trkpt>
      <trkpt lat="43.98211" lon="5.08373">
        <ele>166</ele>
        <time>2018-03-13T17:23:16.000Z</time>
      </trkpt>
      <trkpt lat="43.98215" lon="5.08376">
        <ele>166</ele>
        <time>2018-03-13T17:23:17.000Z</time>
      </trkpt>
      <trkpt lat="43.98217" lon="5.0838">
        <ele>166.19999694824</ele>
        <time>2018-03-13T17:23:18.000Z</time>
      </trkpt>
      <trkpt lat="43.9823" lon="5.08386">
        <ele>166.60000610352</ele>
        <time>2018-03-13T17:23:21.000Z</time>
      </trkpt>
      <trkpt lat="43.98245" lon="5.08385">
        <ele>166.60000610352</ele>
        <time>2018-03-13T17:23:25.000Z</time>
      </trkpt>
      <trkpt lat="43.98257" lon="5.08377">
        <ele>166</ele>
        <time>2018-03-13T17:23:28.000Z</time>
      </trkpt>
      <trkpt lat="43.98263" lon="5.08371">
        <ele>165.80000305176</ele>
        <time>2018-03-13T17:23:29.000Z</time>
      </trkpt>
      <trkpt lat="43.98273" lon="5.08367">
        <ele>166.19999694824</ele>
        <time>2018-03-13T17:23:31.000Z</time>
      </trkpt>
      <trkpt lat="43.98279" lon="5.08363">
        <ele>166.60000610352</ele>
        <time>2018-03-13T17:23:32.000Z</time>
      </trkpt>
      <trkpt lat="43.98303" lon="5.08346">
        <ele>168</ele>
        <time>2018-03-13T17:23:36.000Z</time>
      </trkpt>
      <trkpt lat="43.98314" lon="5.08336">
        <ele>168.80000305176</ele>
        <time>2018-03-13T17:23:38.000Z</time>
      </trkpt>
      <trkpt lat="43.98335" lon="5.08313">
        <ele>167</ele>
        <time>2018-03-13T17:23:42.000Z</time>
      </trkpt>
      <trkpt lat="43.9834" lon="5.08304">
        <ele>166.39999389648</ele>
        <time>2018-03-13T17:23:43.000Z</time>
      </trkpt>
      <trkpt lat="43.98349" lon="5.08288">
        <ele>165.19999694824</ele>
        <time>2018-03-13T17:23:45.000Z</time>
      </trkpt>
      <trkpt lat="43.98361" lon="5.08263">
        <ele>164.60000610352</ele>
        <time>2018-03-13T17:23:48.000Z</time>
      </trkpt>
      <trkpt lat="43.98377" lon="5.08228">
        <ele>164.60000610352</ele>
        <time>2018-03-13T17:23:53.000Z</time>
      </trkpt>
      <trkpt lat="43.98385" lon="5.08209">
        <ele>162.60000610352</ele>
        <time>2018-03-13T17:23:57.000Z</time>
      </trkpt>
      <trkpt lat="43.98386" lon="5.08205">
        <ele>162.39999389648</ele>
        <time>2018-03-13T17:23:58.000Z</time>
      </trkpt>
      <trkpt lat="43.98394" lon="5.08182">
        <ele>160.60000610352</ele>
        <time>2018-03-13T17:24:02.000Z</time>
      </trkpt>
      <trkpt lat="43.98398" lon="5.08173">
        <ele>159.80000305176</ele>
        <time>2018-03-13T17:24:03.000Z</time>
      </trkpt>
      <trkpt lat="43.98415" lon="5.0812">
        <ele>157</ele>
        <time>2018-03-13T17:24:09.000Z</time>
      </trkpt>
      <trkpt lat="43.98421" lon="5.08095">
        <ele>156.60000610352</ele>
        <time>2018-03-13T17:24:12.000Z</time>
      </trkpt>
      <trkpt lat="43.98428" lon="5.08076">
        <ele>154.80000305176</ele>
        <time>2018-03-13T17:24:15.000Z</time>
      </trkpt>
      <trkpt lat="43.98431" lon="5.0807">
        <ele>154.39999389648</ele>
        <time>2018-03-13T17:24:16.000Z</time>
      </trkpt>
      <trkpt lat="43.98438" lon="5.08055">
        <ele>153</ele>
        <time>2018-03-13T17:24:18.000Z</time>
      </trkpt>
      <trkpt lat="43.98443" lon="5.08042">
        <ele>152</ele>
        <time>2018-03-13T17:24:20.000Z</time>
      </trkpt>
      <trkpt lat="43.9845" lon="5.08019">
        <ele>152.19999694824</ele>
        <time>2018-03-13T17:24:23.000Z</time>
      </trkpt>
      <trkpt lat="43.98455" lon="5.07997">
        <ele>152.39999389648</ele>
        <time>2018-03-13T17:24:26.000Z</time>
      </trkpt>
      <trkpt lat="43.98455" lon="5.07991">
        <ele>152.39999389648</ele>
        <time>2018-03-13T17:24:27.000Z</time>
      </trkpt>
      <trkpt lat="43.98455" lon="5.07982">
        <ele>152.39999389648</ele>
        <time>2018-03-13T17:24:29.000Z</time>
      </trkpt>
      <trkpt lat="43.98454" lon="5.07975">
        <ele>152.39999389648</ele>
        <time>2018-03-13T17:24:30.000Z</time>
      </trkpt>
      <trkpt lat="43.98453" lon="5.07968">
        <ele>152.19999694824</ele>
        <time>2018-03-13T17:24:31.000Z</time>
      </trkpt>
      <trkpt lat="43.98454" lon="5.07943">
        <ele>152</ele>
        <time>2018-03-13T17:24:35.000Z</time>
      </trkpt>
      <trkpt lat="43.98455" lon="5.07923">
        <ele>152</ele>
        <time>2018-03-13T17:24:38.000Z</time>
      </trkpt>
      <trkpt lat="43.98457" lon="5.07915">
        <ele>152</ele>
        <time>2018-03-13T17:24:39.000Z</time>
      </trkpt>
      <trkpt lat="43.98458" lon="5.07908">
        <ele>152</ele>
        <time>2018-03-13T17:24:40.000Z</time>
      </trkpt>
      <trkpt lat="43.98458" lon="5.079">
        <ele>152</ele>
        <time>2018-03-13T17:24:41.000Z</time>
      </trkpt>
      <trkpt lat="43.98457" lon="5.07881">
        <ele>151.60000610352</ele>
        <time>2018-03-13T17:24:43.000Z</time>
      </trkpt>
      <trkpt lat="43.98457" lon="5.07853">
        <ele>151.19999694824</ele>
        <time>2018-03-13T17:24:46.000Z</time>
      </trkpt>
      <trkpt lat="43.98458" lon="5.07844">
        <ele>151</ele>
        <time>2018-03-13T17:24:47.000Z</time>
      </trkpt>
      <trkpt lat="43.98458" lon="5.07835">
        <ele>151</ele>
        <time>2018-03-13T17:24:48.000Z</time>
      </trkpt>
      <trkpt lat="43.9846" lon="5.07817">
        <ele>150.60000610352</ele>
        <time>2018-03-13T17:24:50.000Z</time>
      </trkpt>
      <trkpt lat="43.98466" lon="5.07792">
        <ele>149.39999389648</ele>
        <time>2018-03-13T17:24:53.000Z</time>
      </trkpt>
      <trkpt lat="43.98472" lon="5.07768">
        <ele>147</ele>
        <time>2018-03-13T17:24:56.000Z</time>
      </trkpt>
      <trkpt lat="43.98478" lon="5.07748">
        <ele>145</ele>
        <time>2018-03-13T17:24:59.000Z</time>
      </trkpt>
      <trkpt lat="43.9848" lon="5.07737">
        <ele>144.19999694824</ele>
        <time>2018-03-13T17:25:01.000Z</time>
      </trkpt>
      <trkpt lat="43.98479" lon="5.07725">
        <ele>143.19999694824</ele>
        <time>2018-03-13T17:25:03.000Z</time>
      </trkpt>
      <trkpt lat="43.98478" lon="5.07716">
        <ele>142.60000610352</ele>
        <time>2018-03-13T17:25:05.000Z</time>
      </trkpt>
      <trkpt lat="43.98478" lon="5.07703">
        <ele>141.60000610352</ele>
        <time>2018-03-13T17:25:08.000Z</time>
      </trkpt>
      <trkpt lat="43.98475" lon="5.07687">
        <ele>140</ele>
        <time>2018-03-13T17:25:11.000Z</time>
      </trkpt>
      <trkpt lat="43.98475" lon="5.07681">
        <ele>139.39999389648</ele>
        <time>2018-03-13T17:25:12.000Z</time>
      </trkpt>
      <trkpt lat="43.98479" lon="5.07677">
        <ele>138.60000610352</ele>
        <time>2018-03-13T17:25:13.000Z</time>
      </trkpt>
      <trkpt lat="43.98487" lon="5.07668">
        <ele>137.39999389648</ele>
        <time>2018-03-13T17:25:15.000Z</time>
      </trkpt>
      <trkpt lat="43.98491" lon="5.07662">
        <ele>136.60000610352</ele>
        <time>2018-03-13T17:25:16.000Z</time>
      </trkpt>
      <trkpt lat="43.98507" lon="5.07637">
        <ele>133.60000610352</ele>
        <time>2018-03-13T17:25:20.000Z</time>
      </trkpt>
      <trkpt lat="43.98523" lon="5.07607">
        <ele>131.19999694824</ele>
        <time>2018-03-13T17:25:24.000Z</time>
      </trkpt>
      <trkpt lat="43.98537" lon="5.07588">
        <ele>130</ele>
        <time>2018-03-13T17:25:27.000Z</time>
      </trkpt>
      <trkpt lat="43.98557" lon="5.07563">
        <ele>128.60000610352</ele>
        <time>2018-03-13T17:25:31.000Z</time>
      </trkpt>
      <trkpt lat="43.98572" lon="5.07542">
        <ele>127.40000152588</ele>
        <time>2018-03-13T17:25:34.000Z</time>
      </trkpt>
      <trkpt lat="43.98586" lon="5.07525">
        <ele>127</ele>
        <time>2018-03-13T17:25:37.000Z</time>
      </trkpt>
      <trkpt lat="43.98591" lon="5.07519">
        <ele>126.80000305176</ele>
        <time>2018-03-13T17:25:39.000Z</time>
      </trkpt>
      <trkpt lat="43.9859" lon="5.07519">
        <ele>126.80000305176</ele>
        <time>2018-03-13T17:25:42.000Z</time>
      </trkpt>
      <trkpt lat="43.9859" lon="5.07519">
        <ele>126.80000305176</ele>
        <time>2018-03-13T17:25:54.000Z</time>
      </trkpt>
      <trkpt lat="43.9859" lon="5.07519">
        <ele>126.80000305176</ele>
        <time>2018-03-13T17:26:04.000Z</time>
      </trkpt>
      <trkpt lat="43.9859" lon="5.07519">
        <ele>126.80000305176</ele>
        <time>2018-03-13T17:26:19.000Z</time>
      </trkpt>
      <trkpt lat="43.9859" lon="5.07519">
        <ele>126.80000305176</ele>
        <time>2018-03-13T17:26:20.000Z</time>
      </trkpt>
      <trkpt lat="43.9859" lon="5.07519">
        <ele>126.80000305176</ele>
        <time>2018-03-13T17:26:33.000Z</time>
      </trkpt>
      <trkpt lat="43.98593" lon="5.07515">
        <ele>126.59999847412</ele>
        <time>2018-03-13T17:26:47.000Z</time>
      </trkpt>
      <trkpt lat="43.98597" lon="5.0751">
        <ele>126.40000152588</ele>
        <time>2018-03-13T17:26:48.000Z</time>
      </trkpt>
      <trkpt lat="43.98607" lon="5.07498">
        <ele>126</ele>
        <time>2018-03-13T17:26:50.000Z</time>
      </trkpt>
      <trkpt lat="43.98611" lon="5.07491">
        <ele>125.59999847412</ele>
        <time>2018-03-13T17:26:51.000Z</time>
      </trkpt>
      <trkpt lat="43.9863" lon="5.07471">
        <ele>124.59999847412</ele>
        <time>2018-03-13T17:26:54.000Z</time>
      </trkpt>
      <trkpt lat="43.98636" lon="5.07465">
        <ele>124.19999694824</ele>
        <time>2018-03-13T17:26:55.000Z</time>
      </trkpt>
      <trkpt lat="43.9867" lon="5.07433">
        <ele>122.19999694824</ele>
        <time>2018-03-13T17:27:00.000Z</time>
      </trkpt>
      <trkpt lat="43.98682" lon="5.0742">
        <ele>122.19999694824</ele>
        <time>2018-03-13T17:27:02.000Z</time>
      </trkpt>
      <trkpt lat="43.9871" lon="5.0739">
        <ele>122</ele>
        <time>2018-03-13T17:27:07.000Z</time>
      </trkpt>
      <trkpt lat="43.98714" lon="5.07384">
        <ele>121.80000305176</ele>
        <time>2018-03-13T17:27:08.000Z</time>
      </trkpt>
      <trkpt lat="43.98723" lon="5.07375">
        <ele>121.59999847412</ele>
        <time>2018-03-13T17:27:11.000Z</time>
      </trkpt>
      <trkpt lat="43.98723" lon="5.07376">
        <ele>121.59999847412</ele>
        <time>2018-03-13T17:27:13.000Z</time>
      </trkpt>
      <trkpt lat="43.98723" lon="5.07377">
        <ele>121.59999847412</ele>
        <time>2018-03-13T17:27:14.000Z</time>
      </trkpt>
      <trkpt lat="43.98723" lon="5.07377">
        <ele>121.59999847412</ele>
        <time>2018-03-13T17:27:30.000Z</time>
      </trkpt>
      <trkpt lat="43.98723" lon="5.07377">
        <ele>121.59999847412</ele>
        <time>2018-03-13T17:27:50.000Z</time>
      </trkpt>
      <trkpt lat="43.98723" lon="5.07377">
        <ele>121.59999847412</ele>
        <time>2018-03-13T17:28:04.000Z</time>
      </trkpt>
      <trkpt lat="43.98723" lon="5.07377">
        <ele>121.59999847412</ele>
        <time>2018-03-13T17:28:22.000Z</time>
      </trkpt>
      <trkpt lat="43.98723" lon="5.07377">
        <ele>121.59999847412</ele>
        <time>2018-03-13T17:28:46.000Z</time>
      </trkpt>
      <trkpt lat="43.98723" lon="5.07377">
        <ele>121.59999847412</ele>
        <time>2018-03-13T17:29:00.000Z</time>
      </trkpt>
      <trkpt lat="43.98723" lon="5.07377">
        <ele>121.59999847412</ele>
        <time>2018-03-13T17:29:19.000Z</time>
      </trkpt>
      <trkpt lat="43.98723" lon="5.07377">
        <ele>121.59999847412</ele>
        <time>2018-03-13T17:29:40.000Z</time>
      </trkpt>
      <trkpt lat="43.98727" lon="5.07375">
        <ele>121.59999847412</ele>
        <time>2018-03-13T17:29:46.000Z</time>
      </trkpt>
      <trkpt lat="43.98738" lon="5.07395">
        <ele>121.59999847412</ele>
        <time>2018-03-13T17:29:51.000Z</time>
      </trkpt>
      <trkpt lat="43.98747" lon="5.07411">
        <ele>121.80000305176</ele>
        <time>2018-03-13T17:29:56.000Z</time>
      </trkpt>
      <trkpt lat="43.98749" lon="5.07414">
        <ele>121.80000305176</ele>
        <time>2018-03-13T17:30:00.000Z</time>
      </trkpt>
      <trkpt lat="43.98749" lon="5.07414">
        <ele>121.80000305176</ele>
        <time>2018-03-13T17:30:17.000Z</time>
      </trkpt>
      <trkpt lat="43.98749" lon="5.07414">
        <ele>121.80000305176</ele>
        <time>2018-03-13T17:30:36.000Z</time>
      </trkpt>
      <trkpt lat="43.98749" lon="5.07415">
        <ele>121.80000305176</ele>
        <time>2018-03-13T17:30:51.000Z</time>
      </trkpt>
      <trkpt lat="43.98749" lon="5.07415">
        <ele>121.80000305176</ele>
        <time>2018-03-13T17:31:00.000Z</time>
      </trkpt>
      <trkpt lat="43.98749" lon="5.07415">
        <ele>121.80000305176</ele>
        <time>2018-03-13T17:31:17.000Z</time>
      </trkpt>
      <trkpt lat="43.98749" lon="5.07415">
        <ele>121.80000305176</ele>
        <time>2018-03-13T17:31:19.000Z</time>
      </trkpt>
      <trkpt lat="43.9875" lon="5.07415">
        <ele>121.80000305176</ele>
        <time>2018-03-13T17:31:30.000Z</time>
      </trkpt>
      <trkpt lat="43.98754" lon="5.07419">
        <ele>121.80000305176</ele>
        <time>2018-03-13T17:31:33.000Z</time>
      </trkpt>
      <trkpt lat="43.98765" lon="5.07436">
        <ele>121.80000305176</ele>
        <time>2018-03-13T17:31:38.000Z</time>
      </trkpt>
      <trkpt lat="43.98783" lon="5.07462">
        <ele>121.80000305176</ele>
        <time>2018-03-13T17:31:44.000Z</time>
      </trkpt>
      <trkpt lat="43.98805" lon="5.07489">
        <ele>121.19999694824</ele>
        <time>2018-03-13T17:31:50.000Z</time>
      </trkpt>
      <trkpt lat="43.9882" lon="5.07482">
        <ele>121</ele>
        <time>2018-03-13T17:31:53.000Z</time>
      </trkpt>
      <trkpt lat="43.98826" lon="5.07475">
        <ele>120.80000305176</ele>
        <time>2018-03-13T17:31:54.000Z</time>
      </trkpt>
      <trkpt lat="43.98843" lon="5.07457">
        <ele>120.40000152588</ele>
        <time>2018-03-13T17:31:57.000Z</time>
      </trkpt>
      <trkpt lat="43.9885" lon="5.07453">
        <ele>120.19999694824</ele>
        <time>2018-03-13T17:31:58.000Z</time>
      </trkpt>
      <trkpt lat="43.9889" lon="5.07429">
        <ele>118.80000305176</ele>
        <time>2018-03-13T17:32:04.000Z</time>
      </trkpt>
      <trkpt lat="43.98916" lon="5.07411">
        <ele>118.59999847412</ele>
        <time>2018-03-13T17:32:08.000Z</time>
      </trkpt>
      <trkpt lat="43.98936" lon="5.074">
        <ele>118.80000305176</ele>
        <time>2018-03-13T17:32:11.000Z</time>
      </trkpt>
      <trkpt lat="43.98949" lon="5.07393">
        <ele>118.80000305176</ele>
        <time>2018-03-13T17:32:13.000Z</time>
      </trkpt>
      <trkpt lat="43.9896" lon="5.0739">
        <ele>118.40000152588</ele>
        <time>2018-03-13T17:32:15.000Z</time>
      </trkpt>
      <trkpt lat="43.98969" lon="5.07381">
        <ele>118</ele>
        <time>2018-03-13T17:32:18.000Z</time>
      </trkpt>
      <trkpt lat="43.98973" lon="5.07374">
        <ele>117.80000305176</ele>
        <time>2018-03-13T17:32:21.000Z</time>
      </trkpt>
      <trkpt lat="43.98982" lon="5.07371">
        <ele>117.19999694824</ele>
        <time>2018-03-13T17:32:24.000Z</time>
      </trkpt>
      <trkpt lat="43.98989" lon="5.07359">
        <ele>116.80000305176</ele>
        <time>2018-03-13T17:32:27.000Z</time>
      </trkpt>
      <trkpt lat="43.98997" lon="5.07343">
        <ele>116.59999847412</ele>
        <time>2018-03-13T17:32:31.000Z</time>
      </trkpt>
      <trkpt lat="43.98999" lon="5.0734">
        <ele>116.80000305176</ele>
        <time>2018-03-13T17:32:32.000Z</time>
      </trkpt>
      <trkpt lat="43.99007" lon="5.07334">
        <ele>117</ele>
        <time>2018-03-13T17:32:35.000Z</time>
      </trkpt>
      <trkpt lat="43.99017" lon="5.07329">
        <ele>117</ele>
        <time>2018-03-13T17:32:38.000Z</time>
      </trkpt>
      <trkpt lat="43.99021" lon="5.07329">
        <ele>117</ele>
        <time>2018-03-13T17:32:39.000Z</time>
      </trkpt>
      <trkpt lat="43.99036" lon="5.07332">
        <ele>116</ele>
        <time>2018-03-13T17:32:42.000Z</time>
      </trkpt>
      <trkpt lat="43.99042" lon="5.07331">
        <ele>115.59999847412</ele>
        <time>2018-03-13T17:32:43.000Z</time>
      </trkpt>
      <trkpt lat="43.99053" lon="5.0733">
        <ele>115.19999694824</ele>
        <time>2018-03-13T17:32:45.000Z</time>
      </trkpt>
      <trkpt lat="43.99058" lon="5.07329">
        <ele>114.80000305176</ele>
        <time>2018-03-13T17:32:46.000Z</time>
      </trkpt>
      <trkpt lat="43.99069" lon="5.07333">
        <ele>114</ele>
        <time>2018-03-13T17:32:48.000Z</time>
      </trkpt>
      <trkpt lat="43.9908" lon="5.07333">
        <ele>113</ele>
        <time>2018-03-13T17:32:50.000Z</time>
      </trkpt>
      <trkpt lat="43.99097" lon="5.0732">
        <ele>112.59999847412</ele>
        <time>2018-03-13T17:32:53.000Z</time>
      </trkpt>
      <trkpt lat="43.99102" lon="5.07314">
        <ele>112.40000152588</ele>
        <time>2018-03-13T17:32:54.000Z</time>
      </trkpt>
      <trkpt lat="43.99113" lon="5.073">
        <ele>112.40000152588</ele>
        <time>2018-03-13T17:32:56.000Z</time>
      </trkpt>
      <trkpt lat="43.99131" lon="5.07281">
        <ele>112.59999847412</ele>
        <time>2018-03-13T17:32:59.000Z</time>
      </trkpt>
      <trkpt lat="43.99165" lon="5.07241">
        <ele>113</ele>
        <time>2018-03-13T17:33:05.000Z</time>
      </trkpt>
      <trkpt lat="43.99183" lon="5.07219">
        <ele>112.40000152588</ele>
        <time>2018-03-13T17:33:08.000Z</time>
      </trkpt>
      <trkpt lat="43.99193" lon="5.072">
        <ele>111.59999847412</ele>
        <time>2018-03-13T17:33:10.000Z</time>
      </trkpt>
      <trkpt lat="43.99202" lon="5.07181">
        <ele>110.40000152588</ele>
        <time>2018-03-13T17:33:12.000Z</time>
      </trkpt>
      <trkpt lat="43.99218" lon="5.07156">
        <ele>108.40000152588</ele>
        <time>2018-03-13T17:33:15.000Z</time>
      </trkpt>
      <trkpt lat="43.99239" lon="5.07143">
        <ele>107.59999847412</ele>
        <time>2018-03-13T17:33:18.000Z</time>
      </trkpt>
      <trkpt lat="43.99247" lon="5.07139">
        <ele>107.19999694824</ele>
        <time>2018-03-13T17:33:19.000Z</time>
      </trkpt>
      <trkpt lat="43.99269" lon="5.07128">
        <ele>106.19999694824</ele>
        <time>2018-03-13T17:33:22.000Z</time>
      </trkpt>
      <trkpt lat="43.99277" lon="5.07127">
        <ele>106</ele>
        <time>2018-03-13T17:33:23.000Z</time>
      </trkpt>
      <trkpt lat="43.99301" lon="5.0713">
        <ele>105.40000152588</ele>
        <time>2018-03-13T17:33:26.000Z</time>
      </trkpt>
      <trkpt lat="43.99334" lon="5.07141">
        <ele>104.40000152588</ele>
        <time>2018-03-13T17:33:30.000Z</time>
      </trkpt>
      <trkpt lat="43.99359" lon="5.07149">
        <ele>103.80000305176</ele>
        <time>2018-03-13T17:33:33.000Z</time>
      </trkpt>
      <trkpt lat="43.99381" lon="5.07158">
        <ele>103</ele>
        <time>2018-03-13T17:33:36.000Z</time>
      </trkpt>
      <trkpt lat="43.99409" lon="5.07165">
        <ele>102</ele>
        <time>2018-03-13T17:33:40.000Z</time>
      </trkpt>
      <trkpt lat="43.99419" lon="5.07156">
        <ele>101.40000152588</ele>
        <time>2018-03-13T17:33:43.000Z</time>
      </trkpt>
      <trkpt lat="43.99425" lon="5.0714">
        <ele>101</ele>
        <time>2018-03-13T17:33:45.000Z</time>
      </trkpt>
      <trkpt lat="43.99428" lon="5.07132">
        <ele>100.80000305176</ele>
        <time>2018-03-13T17:33:46.000Z</time>
      </trkpt>
      <trkpt lat="43.99431" lon="5.07123">
        <ele>100.40000152588</ele>
        <time>2018-03-13T17:33:47.000Z</time>
      </trkpt>
      <trkpt lat="43.99449" lon="5.07073">
        <ele>100</ele>
        <time>2018-03-13T17:33:52.000Z</time>
      </trkpt>
      <trkpt lat="43.99457" lon="5.07018">
        <ele>99.599998474121</ele>
        <time>2018-03-13T17:33:57.000Z</time>
      </trkpt>
      <trkpt lat="43.99459" lon="5.07007">
        <ele>99.400001525879</ele>
        <time>2018-03-13T17:33:58.000Z</time>
      </trkpt>
      <trkpt lat="43.99469" lon="5.06931">
        <ele>98.599998474121</ele>
        <time>2018-03-13T17:34:05.000Z</time>
      </trkpt>
      <trkpt lat="43.99472" lon="5.069">
        <ele>98.199996948242</ele>
        <time>2018-03-13T17:34:08.000Z</time>
      </trkpt>
      <trkpt lat="43.99476" lon="5.06875">
        <ele>98</ele>
        <time>2018-03-13T17:34:11.000Z</time>
      </trkpt>
      <trkpt lat="43.99479" lon="5.06872">
        <ele>98</ele>
        <time>2018-03-13T17:34:12.000Z</time>
      </trkpt>
      <trkpt lat="43.99488" lon="5.06874">
        <ele>98</ele>
        <time>2018-03-13T17:34:14.000Z</time>
      </trkpt>
      <trkpt lat="43.99497" lon="5.06883">
        <ele>98</ele>
        <time>2018-03-13T17:34:16.000Z</time>
      </trkpt>
      <trkpt lat="43.99501" lon="5.06888">
        <ele>98.199996948242</ele>
        <time>2018-03-13T17:34:17.000Z</time>
      </trkpt>
      <trkpt lat="43.99512" lon="5.06897">
        <ele>98.199996948242</ele>
        <time>2018-03-13T17:34:19.000Z</time>
      </trkpt>
      <trkpt lat="43.99553" lon="5.0693">
        <ele>98.400001525879</ele>
        <time>2018-03-13T17:34:27.000Z</time>
      </trkpt>
      <trkpt lat="43.99579" lon="5.06951">
        <ele>98.199996948242</ele>
        <time>2018-03-13T17:34:32.000Z</time>
      </trkpt>
      <trkpt lat="43.99594" lon="5.06965">
        <ele>98.199996948242</ele>
        <time>2018-03-13T17:34:35.000Z</time>
      </trkpt>
      <trkpt lat="43.99604" lon="5.06972">
        <ele>98</ele>
        <time>2018-03-13T17:34:37.000Z</time>
      </trkpt>
      <trkpt lat="43.99614" lon="5.0697">
        <ele>98.199996948242</ele>
        <time>2018-03-13T17:34:39.000Z</time>
      </trkpt>
      <trkpt lat="43.99622" lon="5.06949">
        <ele>98</ele>
        <time>2018-03-13T17:34:42.000Z</time>
      </trkpt>
      <trkpt lat="43.99635" lon="5.06916">
        <ele>98</ele>
        <time>2018-03-13T17:34:46.000Z</time>
      </trkpt>
      <trkpt lat="43.99639" lon="5.06909">
        <ele>98</ele>
        <time>2018-03-13T17:34:47.000Z</time>
      </trkpt>
      <trkpt lat="43.99673" lon="5.06858">
        <ele>97.800003051758</ele>
        <time>2018-03-13T17:34:54.000Z</time>
      </trkpt>
      <trkpt lat="43.99711" lon="5.06803">
        <ele>95.199996948242</ele>
        <time>2018-03-13T17:35:02.000Z</time>
      </trkpt>
      <trkpt lat="43.99719" lon="5.06791">
        <ele>95</ele>
        <time>2018-03-13T17:35:04.000Z</time>
      </trkpt>
      <trkpt lat="43.99726" lon="5.06784">
        <ele>94.800003051758</ele>
        <time>2018-03-13T17:35:07.000Z</time>
      </trkpt>
      <trkpt lat="43.99728" lon="5.06785">
        <ele>95</ele>
        <time>2018-03-13T17:35:10.000Z</time>
      </trkpt>
      <trkpt lat="43.99729" lon="5.06788">
        <ele>95</ele>
        <time>2018-03-13T17:35:11.000Z</time>
      </trkpt>
      <trkpt lat="43.99732" lon="5.06804">
        <ele>95.199996948242</ele>
        <time>2018-03-13T17:35:14.000Z</time>
      </trkpt>
      <trkpt lat="43.99733" lon="5.06811">
        <ele>95.400001525879</ele>
        <time>2018-03-13T17:35:15.000Z</time>
      </trkpt>
      <trkpt lat="43.99744" lon="5.06855">
        <ele>96.599998474121</ele>
        <time>2018-03-13T17:35:21.000Z</time>
      </trkpt>
      <trkpt lat="43.9975" lon="5.06877">
        <ele>97.400001525879</ele>
        <time>2018-03-13T17:35:24.000Z</time>
      </trkpt>
      <trkpt lat="43.99759" lon="5.06911">
        <ele>97.599998474121</ele>
        <time>2018-03-13T17:35:29.000Z</time>
      </trkpt>
      <trkpt lat="43.99762" lon="5.06915">
        <ele>97.599998474121</ele>
        <time>2018-03-13T17:35:30.000Z</time>
      </trkpt>
      <trkpt lat="43.99767" lon="5.06917">
        <ele>97.599998474121</ele>
        <time>2018-03-13T17:35:31.000Z</time>
      </trkpt>
      <trkpt lat="43.99781" lon="5.06909">
        <ele>97.199996948242</ele>
        <time>2018-03-13T17:35:34.000Z</time>
      </trkpt>
      <trkpt lat="43.9979" lon="5.069">
        <ele>97</ele>
        <time>2018-03-13T17:35:36.000Z</time>
      </trkpt>
      <trkpt lat="43.99799" lon="5.06894">
        <ele>96.599998474121</ele>
        <time>2018-03-13T17:35:38.000Z</time>
      </trkpt>
      <trkpt lat="43.99812" lon="5.06886">
        <ele>95.800003051758</ele>
        <time>2018-03-13T17:35:41.000Z</time>
      </trkpt>
      <trkpt lat="43.99819" lon="5.06878">
        <ele>95.400001525879</ele>
        <time>2018-03-13T17:35:43.000Z</time>
      </trkpt>
      <trkpt lat="43.99827" lon="5.0687">
        <ele>95</ele>
        <time>2018-03-13T17:35:46.000Z</time>
      </trkpt>
      <trkpt lat="43.99832" lon="5.06868">
        <ele>94.800003051758</ele>
        <time>2018-03-13T17:35:47.000Z</time>
      </trkpt>
      <trkpt lat="43.9985" lon="5.06859">
        <ele>94.199996948242</ele>
        <time>2018-03-13T17:35:51.000Z</time>
      </trkpt>
      <trkpt lat="43.99854" lon="5.06857">
        <ele>94</ele>
        <time>2018-03-13T17:35:52.000Z</time>
      </trkpt>
      <trkpt lat="43.99858" lon="5.06855">
        <ele>94</ele>
        <time>2018-03-13T17:35:53.000Z</time>
      </trkpt>
      <trkpt lat="43.99861" lon="5.06852">
        <ele>94</ele>
        <time>2018-03-13T17:35:54.000Z</time>
      </trkpt>
      <trkpt lat="43.99867" lon="5.06845">
        <ele>94.199996948242</ele>
        <time>2018-03-13T17:35:56.000Z</time>
      </trkpt>
      <trkpt lat="43.99869" lon="5.06842">
        <ele>94.199996948242</ele>
        <time>2018-03-13T17:35:57.000Z</time>
      </trkpt>
      <trkpt lat="43.99872" lon="5.06839">
        <ele>94.199996948242</ele>
        <time>2018-03-13T17:35:58.000Z</time>
      </trkpt>
      <trkpt lat="43.99882" lon="5.06826">
        <ele>94.199996948242</ele>
        <time>2018-03-13T17:36:01.000Z</time>
      </trkpt>
      <trkpt lat="43.99886" lon="5.0681">
        <ele>94</ele>
        <time>2018-03-13T17:36:04.000Z</time>
      </trkpt>
      <trkpt lat="43.99886" lon="5.06804">
        <ele>94</ele>
        <time>2018-03-13T17:36:05.000Z</time>
      </trkpt>
      <trkpt lat="43.99887" lon="5.06773">
        <ele>93.199996948242</ele>
        <time>2018-03-13T17:36:10.000Z</time>
      </trkpt>
    </trkseg>
  </trk>
</gpx>